Observation data for Fritch on 06/16/2019      Previous  Date  Next       Current Mesonet Observations  Soil Data  Daily Summary Page  Observations in Plain Language
KFR1 160500Z 34018G24KT 19/12 A2989 RMK A01 T01890121  RH  065%=      5-min Rain = 0
KFR1 160501Z 35015G20KT 19/12 A2989 RMK A01 T01880120  RH  064%=      5-min Rain = 0
KFR1 160502Z 34015G20KT 19/12 A2989 RMK A01 T01880121  RH  065%=      5-min Rain = 0
KFR1 160503Z 34015G23KT 19/12 A2989 RMK A01 T01880121  RH  065%=      5-min Rain = 0
KFR1 160504Z 35018G23KT 19/12 A2988 RMK A01 T01880120  RH  064%=      5-min Rain = 0
KFR1 160505Z 35017G23KT 19/12 A2988 RMK A01 T01890119  RH  064%=      5-min Rain = 0
KFR1 160506Z 34014G19KT 19/12 A2988 RMK A01 T01890119  RH  064%=      5-min Rain = 0
KFR1 160507Z 35014KT 19/12 A2988 RMK A01 T01890119  RH  064%=      5-min Rain = 0
KFR1 160508Z 34015G21KT 19/12 A2988 RMK A01 T01900119  RH  063%=      5-min Rain = 0
KFR1 160509Z 34012KT 19/12 A2989 RMK A01 T01900120  RH  064%=      5-min Rain = 0
KFR1 160510Z 34018G27KT 19/12 A2989 RMK A01 T01900119  RH  063%=      5-min Rain = 0
KFR1 160511Z 34013KT 19/12 A2989 RMK A01 T01900118  RH  063%=      5-min Rain = 0
KFR1 160512Z 35014G20KT 19/12 A299 RMK A01 T01900119  RH  063%=      5-min Rain = 0
KFR1 160513Z 35012KT 19/12 A299 RMK A01 T01900119  RH  063%=      5-min Rain = 0
KFR1 160514Z 35013KT 19/12 A299 RMK A01 T01900119  RH  064%=      5-min Rain = 0
KFR1 160515Z 35016KT 19/12 A299 RMK A01 T01900119  RH  063%=      5-min Rain = 0
KFR1 160516Z 34013KT 19/12 A299 RMK A01 T01900119  RH  063%=      5-min Rain = 0
KFR1 160517Z 35016G21KT 19/12 A299 RMK A01 T01890120  RH  064%=      5-min Rain = 0
KFR1 160518Z 35015G24KT 19/12 A299 RMK A01 T01900119  RH  063%=      5-min Rain = 0
KFR1 160519Z 35014G21KT 19/12 A299 RMK A01 T01890119  RH  064%=      5-min Rain = 0
KFR1 160520Z 35015KT 19/12 A299 RMK A01 T01890120  RH  064%=      5-min Rain = 0
KFR1 160521Z 34014G23KT 19/12 A299 RMK A01 T01890121  RH  065%=      5-min Rain = 0
KFR1 160522Z 35017G26KT 19/12 A299 RMK A01 T01890119  RH  064%=      5-min Rain = 0
KFR1 160523Z 34014G20KT 19/12 A299 RMK A01 T01890119  RH  064%=      5-min Rain = 0
KFR1 160524Z 35014G22KT 19/12 A299 RMK A01 T01890122  RH  065%=      5-min Rain = 0
KFR1 160525Z 35016G21KT 19/12 A299 RMK A01 T01890123  RH  065%=      5-min Rain = 0
KFR1 160526Z 35015KT 19/12 A299 RMK A01 T01880121  RH  065%=      5-min Rain = 0
KFR1 160527Z 36016KT 19/12 A299 RMK A01 T01880123  RH  066%=      5-min Rain = 0
KFR1 160528Z 35014G19KT 19/12 A299 RMK A01 T01870124  RH  067%=      5-min Rain = 0
KFR1 160529Z 35017G22KT 19/12 A299 RMK A01 T01870124  RH  067%=      5-min Rain = 0
KFR1 160530Z 35017KT 19/12 A299 RMK A01 T01860124  RH  067%=      5-min Rain = 0
KFR1 160531Z 36017KT 19/13 A299 RMK A01 T01860125  RH  067%=      5-min Rain = 0
KFR1 160532Z 35015G20KT 19/13 A2991 RMK A01 T01860125  RH  068%=      5-min Rain = 0
KFR1 160533Z 36017KT 19/13 A299 RMK A01 T01860126  RH  068%=      5-min Rain = 0
KFR1 160534Z 35016KT 19/13 A299 RMK A01 T01860126  RH  068%=      5-min Rain = 0
KFR1 160535Z 35015KT 19/13 A299 RMK A01 T01860126  RH  068%=      5-min Rain = 0
KFR1 160536Z 35013KT 19/13 A2991 RMK A01 T01850126  RH  068%=      5-min Rain = 0
KFR1 160537Z 35015KT 19/13 A2991 RMK A01 T01850128  RH  069%=      5-min Rain = 0
KFR1 160538Z 35015G21KT 19/13 A2991 RMK A01 T01850127  RH  069%=      5-min Rain = 0
KFR1 160539Z 00014KT 19/13 A2991 RMK A01 T01850126  RH  069%=      5-min Rain = 0
KFR1 160540Z 00012KT 19/13 A2991 RMK A01 T01850128  RH  069%=      5-min Rain = 0
KFR1 160541Z 00015G20KT 19/13 A299 RMK A01 T01850128  RH  069%=      5-min Rain = 0
KFR1 160542Z 00016G21KT 19/13 A299 RMK A01 T01850127  RH  069%=      5-min Rain = 0
KFR1 160543Z 00018G24KT 19/13 A299 RMK A01 T01850126  RH  068%=      5-min Rain = 0
KFR1 160544Z 01016G21KT 18/13 A299 RMK A01 T01840126  RH  069%=      5-min Rain = 0
KFR1 160545Z 01012KT 18/13 A299 RMK A01 T01840128  RH  070%=      5-min Rain = 0
KFR1 160546Z 01014KT 18/13 A299 RMK A01 T01830128  RH  070%=      5-min Rain = 0
KFR1 160547Z 01013G18KT 18/13 A299 RMK A01 T01830128  RH  070%=      5-min Rain = 0
KFR1 160548Z 00013KT 18/13 A299 RMK A01 T01820128  RH  071%=      5-min Rain = 0
KFR1 160549Z 01015G21KT 18/13 A299 RMK A01 T01810128  RH  071%=      5-min Rain = 0
KFR1 160550Z 02014G19KT 18/13 A299 RMK A01 T01810127  RH  071%=      5-min Rain = 0
KFR1 160551Z 02012G18KT 18/13 A299 RMK A01 T01810128  RH  071%=      5-min Rain = 0
KFR1 160552Z 01014G21KT 18/13 A299 RMK A01 T01810128  RH  071%=      5-min Rain = 0
KFR1 160553Z 01014G21KT 18/13 A2991 RMK A01 T01800128  RH  071%=      5-min Rain = 0
KFR1 160554Z 02013KT 18/13 A2991 RMK A01 T01810129  RH  072%=      5-min Rain = 0
KFR1 160555Z 03013G19KT 18/13 A2991 RMK A01 T01800129  RH  072%=      5-min Rain = 0
KFR1 160556Z 02010G16KT 18/13 A2991 RMK A01 T01800130  RH  072%=      5-min Rain = 0
KFR1 160557Z 01017G22KT 18/13 A2991 RMK A01 T01790131  RH  073%=      5-min Rain = 0
KFR1 160558Z 02018KT 18/13 A2991 RMK A01 T01790130  RH  073%=      5-min Rain = 0
KFR1 160559Z 02016G21KT 18/13 A2991 RMK A01 T01790130  RH  073%=      5-min Rain = 0
KFR1 160600Z 02018G25KT 18/13 A2991 RMK A01 T01790131  RH  073%=      5-min Rain = 0
KFR1 160601Z 03011G16KT 18/13 A2991 RMK A01 T01790131  RH  074%=      5-min Rain = 0
KFR1 160602Z 02018G25KT 18/13 A299 RMK A01 T01790132  RH  074%=      5-min Rain = 0
KFR1 160603Z 02017G23KT 18/13 A299 RMK A01 T01790132  RH  074%=      5-min Rain = 0
KFR1 160604Z 02020G26KT 18/13 A299 RMK A01 T01790132  RH  074%=      5-min Rain = 0
KFR1 160605Z 02019G24KT 18/13 A299 RMK A01 T01790133  RH  075%=      5-min Rain = 0
KFR1 160606Z 02018G25KT 18/13 A299 RMK A01 T01790134  RH  075%=      5-min Rain = 0
KFR1 160607Z 02021G28KT 18/13 A299 RMK A01 T01780134  RH  075%=      5-min Rain = 0
KFR1 160608Z 02022G28KT 18/13 A2989 RMK A01 T01780134  RH  075%=      5-min Rain = 0
KFR1 160609Z 02019G25KT 18/13 A2989 RMK A01 T01780134  RH  076%=      5-min Rain = 0
KFR1 160610Z 02020G26KT 18/13 A299 RMK A01 T01780134  RH  075%=      5-min Rain = 0
KFR1 160611Z 02021G27KT 18/13 A299 RMK A01 T01780133  RH  075%=      5-min Rain = 0
KFR1 160612Z 02020G26KT 18/13 A299 RMK A01 T01780132  RH  074%=      5-min Rain = 0
KFR1 160613Z 01020KT 18/13 A2991 RMK A01 T01780133  RH  075%=      5-min Rain = 0
KFR1 160614Z 01016G21KT 18/13 A2991 RMK A01 T01790131  RH  074%=      5-min Rain = 0
KFR1 160615Z 01016KT 18/13 A2992 RMK A01 T01790130  RH  073%=      5-min Rain = 0
KFR1 160616Z 02015G23KT 18/13 A2992 RMK A01 T01790131  RH  073%=      5-min Rain = 0
KFR1 160617Z 02013KT 18/13 A2992 RMK A01 T01790132  RH  074%=      5-min Rain = 0
KFR1 160618Z 02017G22KT 18/13 A2992 RMK A01 T01790131  RH  074%=      5-min Rain = 0
KFR1 160619Z 02016G21KT 18/13 A2992 RMK A01 T01800131  RH  073%=      5-min Rain = 0
KFR1 160620Z 02015KT 18/13 A2993 RMK A01 T01800131  RH  073%=      5-min Rain = 0
KFR1 160621Z 01014KT 18/13 A2993 RMK A01 T01800133  RH  074%=      5-min Rain = 0
KFR1 160622Z 02010KT 18/13 A2993 RMK A01 T01800133  RH  074%=      5-min Rain = 0
KFR1 160623Z 02013KT 18/13 A2993 RMK A01 T01800133  RH  074%=      5-min Rain = 0
KFR1 160624Z 03011KT 18/13 A2993 RMK A01 T01800130  RH  073%=      5-min Rain = 0
KFR1 160625Z 02010KT 18/13 A2994 RMK A01 T01810131  RH  073%=      5-min Rain = 0
KFR1 160626Z 02011KT 18/13 A2994 RMK A01 T01810132  RH  073%=      5-min Rain = 0
KFR1 160627Z 03013KT 18/13 A2994 RMK A01 T01810131  RH  072%=      5-min Rain = 0
KFR1 160628Z 02014G20KT 18/13 A2994 RMK A01 T01810130  RH  072%=      5-min Rain = 0
KFR1 160629Z 02011KT 18/13 A2994 RMK A01 T01810129  RH  072%=      5-min Rain = 0
KFR1 160630Z 04013G18KT 18/13 A2994 RMK A01 T01810130  RH  072%=      5-min Rain = 0
KFR1 160631Z 04015KT 18/13 A2993 RMK A01 T01820130  RH  072%=      5-min Rain = 0
KFR1 160632Z 02015KT 18/13 A2993 RMK A01 T01820129  RH  071%=      5-min Rain = 0
KFR1 160633Z 04016KT 18/13 A2993 RMK A01 T01820128  RH  071%=      5-min Rain = 0
KFR1 160634Z 04015KT 18/13 A2993 RMK A01 T01820129  RH  071%=      5-min Rain = 0
KFR1 160635Z 03012KT 18/13 A2993 RMK A01 T01820130  RH  072%=      5-min Rain = 0
KFR1 160636Z 03010G15KT 18/13 A2993 RMK A01 T01820130  RH  072%=      5-min Rain = 0
KFR1 160637Z 03015KT 18/13 A2993 RMK A01 T01820129  RH  071%=      5-min Rain = 0
KFR1 160638Z 02011G16KT 18/13 A2993 RMK A01 T01820129  RH  071%=      5-min Rain = 0
KFR1 160639Z 04014KT 18/13 A2993 RMK A01 T01820129  RH  071%=      5-min Rain = 0
KFR1 160640Z 03013G22KT 18/13 A2993 RMK A01 T01820127  RH  070%=      5-min Rain = 0
KFR1 160641Z 04013KT 18/13 A2992 RMK A01 T01820128  RH  070%=      5-min Rain = 0
KFR1 160642Z 04016KT 18/13 A2992 RMK A01 T01820127  RH  070%=      5-min Rain = 0
KFR1 160643Z 03014G19KT 18/13 A2992 RMK A01 T01820128  RH  071%=      5-min Rain = 0
KFR1 160644Z 04012KT 18/13 A2992 RMK A01 T01820129  RH  071%=      5-min Rain = 0
KFR1 160645Z 04015G20KT 18/13 A2992 RMK A01 T01820128  RH  071%=      5-min Rain = 0
KFR1 160646Z 04015KT 18/13 A2992 RMK A01 T01820127  RH  070%=      5-min Rain = 0
KFR1 160647Z 03015G21KT 18/13 A2992 RMK A01 T01820127  RH  070%=      5-min Rain = 0
KFR1 160648Z 04014G19KT 18/13 A2993 RMK A01 T01820128  RH  070%=      5-min Rain = 0
KFR1 160649Z 05011KT 18/13 A2993 RMK A01 T01820128  RH  071%=      5-min Rain = 0
KFR1 160650Z 04015KT 18/13 A2993 RMK A01 T01810128  RH  071%=      5-min Rain = 0
KFR1 160651Z 03013G18KT 18/13 A2994 RMK A01 T01810127  RH  071%=      5-min Rain = 0
KFR1 160652Z 04011KT 18/13 A2994 RMK A01 T01820128  RH  071%=      5-min Rain = 0
KFR1 160653Z 03012KT 18/13 A2994 RMK A01 T01820128  RH  071%=      5-min Rain = 0
KFR1 160654Z 03009KT 18/13 A2994 RMK A01 T01810128  RH  071%=      5-min Rain = 0
KFR1 160655Z 04010G15KT 18/13 A2994 RMK A01 T01820129  RH  071%=      5-min Rain = 0
KFR1 160656Z 04014KT 18/13 A2994 RMK A01 T01810129  RH  071%=      5-min Rain = 0
KFR1 160657Z 04013KT 18/13 A2993 RMK A01 T01810129  RH  072%=      5-min Rain = 0
KFR1 160658Z 04012KT 18/13 A2993 RMK A01 T01810130  RH  072%=      5-min Rain = 0
KFR1 160659Z 04015G23KT 18/13 A2993 RMK A01 T01810131  RH  072%=      5-min Rain = 0
KFR1 160700Z 04015KT 18/13 A2992 RMK A01 T01810129  RH  072%=      5-min Rain = 0
KFR1 160701Z 04015G20KT 18/13 A2992 RMK A01 T01810129  RH  071%=      5-min Rain = 0
KFR1 160702Z 04013KT 18/13 A2992 RMK A01 T01810129  RH  071%=      5-min Rain = 0
KFR1 160703Z 03016KT 18/13 A2992 RMK A01 T01810128  RH  071%=      5-min Rain = 0
KFR1 160704Z 04017KT 18/13 A2993 RMK A01 T01810128  RH  071%=      5-min Rain = 0
KFR1 160705Z 04016KT 18/13 A2993 RMK A01 T01810129  RH  071%=      5-min Rain = 0
KFR1 160706Z 03017KT 18/13 A2993 RMK A01 T01810129  RH  072%=      5-min Rain = 0
KFR1 160707Z 04015KT 18/13 A2993 RMK A01 T01810130  RH  072%=      5-min Rain = 0
KFR1 160708Z 03012KT 18/13 A2993 RMK A01 T01810130  RH  072%=      5-min Rain = 0
KFR1 160709Z 04013G18KT 18/13 A2993 RMK A01 T01800131  RH  073%=      5-min Rain = 0
KFR1 160710Z 04017KT 18/13 A2992 RMK A01 T01800130  RH  073%=      5-min Rain = 0
KFR1 160711Z 04017KT 18/13 A2991 RMK A01 T01800130  RH  073%=      5-min Rain = 0
KFR1 160712Z 04015KT 18/13 A2991 RMK A01 T01790130  RH  073%=      5-min Rain = 0
KFR1 160713Z 04018KT 18/13 A299 RMK A01 T01780131  RH  074%=      5-min Rain = 0
KFR1 160714Z 04018KT 18/13 A299 RMK A01 T01780131  RH  074%=      5-min Rain = 0
KFR1 160715Z 04020KT 18/13 A299 RMK A01 T01780131  RH  074%=      5-min Rain = 0
KFR1 160716Z 04020G25KT 18/13 A2989 RMK A01 T01770130  RH  074%=      5-min Rain = 0
KFR1 160717Z 04021G26KT 18/13 A2989 RMK A01 T01770131  RH  074%=      5-min Rain = 0
KFR1 160718Z 05017KT 18/13 A2989 RMK A01 T01770131  RH  074%=      5-min Rain = 0
KFR1 160719Z 05019G25KT 18/13 A2989 RMK A01 T01770131  RH  074%=      5-min Rain = 0
KFR1 160720Z 05019G26KT 18/13 A2989 RMK A01 T01770130  RH  074%=      5-min Rain = 0
KFR1 160721Z 04018G23KT 18/13 A2989 RMK A01 T01770130  RH  074%=      5-min Rain = 0
KFR1 160722Z 04021KT 18/13 A2989 RMK A01 T01770130  RH  074%=      5-min Rain = 0
KFR1 160723Z 04022KT 18/13 A2989 RMK A01 T01770131  RH  074%=      5-min Rain = 0
KFR1 160724Z 04019G26KT 18/13 A2988 RMK A01 T01770131  RH  074%=      5-min Rain = 0
KFR1 160725Z 04021G27KT 18/13 A2989 RMK A01 T01770131  RH  074%=      5-min Rain = 0
KFR1 160726Z 04021G28KT 18/13 A2989 RMK A01 T01770131  RH  074%=      5-min Rain = 0
KFR1 160727Z 04020G25KT 18/13 A2989 RMK A01 T01770131  RH  074%=      5-min Rain = 0
KFR1 160728Z 04020G25KT 18/13 A2989 RMK A01 T01770131  RH  074%=      5-min Rain = 0
KFR1 160729Z 04019G24KT 18/13 A2989 RMK A01 T01770131  RH  074%=      5-min Rain = 0
KFR1 160730Z 04020KT 18/13 A2989 RMK A01 T01770131  RH  074%=      5-min Rain = 0
KFR1 160731Z 04020G27KT 18/13 A2989 RMK A01 T01770131  RH  074%=      5-min Rain = 0
KFR1 160732Z 05019G25KT 18/13 A2989 RMK A01 T01770131  RH  075%=      5-min Rain = 0
KFR1 160733Z 05021G26KT 18/13 A2989 RMK A01 T01760131  RH  075%=      5-min Rain = 0
KFR1 160734Z 05018G23KT 18/13 A2989 RMK A01 T01760131  RH  075%=      5-min Rain = 0
KFR1 160735Z 04019G25KT 18/13 A2989 RMK A01 T01760132  RH  075%=      5-min Rain = 0
KFR1 160736Z 05018G24KT 18/13 A299 RMK A01 T01760132  RH  075%=      5-min Rain = 0
KFR1 160737Z 03017KT 18/13 A299 RMK A01 T01760132  RH  076%=      5-min Rain = 0
KFR1 160738Z 03018G23KT 18/13 A299 RMK A01 T01760133  RH  076%=      5-min Rain = 0
KFR1 160739Z 03018KT 18/13 A299 RMK A01 T01750133  RH  076%=      5-min Rain = 0
KFR1 160740Z 03014G19KT 18/13 A299 RMK A01 T01760133  RH  076%=      5-min Rain = 0
KFR1 160741Z 02015G23KT 18/13 A299 RMK A01 T01760133  RH  076%=      5-min Rain = 0
KFR1 160742Z 03010G15KT 18/13 A2991 RMK A01 T01750133  RH  076%=      5-min Rain = 0
KFR1 160743Z 03011G18KT 18/14 A2991 RMK A01 T01760135  RH  077%=      5-min Rain = 0
KFR1 160744Z 02011G17KT 18/14 A2991 RMK A01 T01760136  RH  077%=      5-min Rain = 0
KFR1 160745Z 03014G20KT 18/14 A2991 RMK A01 T01750136  RH  078%=      5-min Rain = 0
KFR1 160746Z 03013G18KT 18/14 A2991 RMK A01 T01760136  RH  078%=      5-min Rain = 0
KFR1 160747Z 02009KT 18/14 A2991 RMK A01 T01760137  RH  078%=      5-min Rain = 0
KFR1 160748Z 04010KT 18/14 A2991 RMK A01 T01750138  RH  078%=      5-min Rain = 0
KFR1 160749Z 04010KT 18/14 A2991 RMK A01 T01760137  RH  078%=      5-min Rain = 0
KFR1 160750Z 04009KT 18/14 A2992 RMK A01 T01750136  RH  078%=      5-min Rain = 0
KFR1 160751Z 03010G15KT 18/14 A2992 RMK A01 T01750136  RH  078%=      5-min Rain = 0
KFR1 160752Z 05010G15KT 18/14 A2992 RMK A01 T01750136  RH  078%=      5-min Rain = 0
KFR1 160753Z 05008KT 17/14 A2992 RMK A01 T01740136  RH  078%=      5-min Rain = 0
KFR1 160754Z 04009KT 18/14 A2993 RMK A01 T01750137  RH  078%=      5-min Rain = 0
KFR1 160755Z 04007KT 17/14 A2993 RMK A01 T01740136  RH  078%=      5-min Rain = 0
KFR1 160756Z 05006KT 18/14 A2993 RMK A01 T01750136  RH  078%=      5-min Rain = 0
KFR1 160757Z 12004KT 18/14 A2993 RMK A01 T01750137  RH  078%=      5-min Rain = 0
KFR1 160758Z 14003KT 18/14 A2994 RMK A01 T01750137  RH  079%=      5-min Rain = 0
KFR1 160759Z 14002KT 18/14 A2994 RMK A01 T01750137  RH  078%=      5-min Rain = 0
KFR1 160800Z 11002KT 18/14 A2994 RMK A01 T01750137  RH  078%=      5-min Rain = 0
KFR1 160801Z 09003KT 18/14 A2994 RMK A01 T01750137  RH  078%=      5-min Rain = 0
KFR1 160802Z 04000KT 18/14 A2995 RMK A01 T01750136  RH  078%=      5-min Rain = 0
KFR1 160803Z 22000KT 17/14 A2995 RMK A01 T01740136  RH  078%=      5-min Rain = 0
KFR1 160804Z 20002KT 18/14 A2995 RMK A01 T01750136  RH  078%=      5-min Rain = 0
KFR1 160805Z 16003KT 18/14 A2995 RMK A01 T01750137  RH  078%=      5-min Rain = 0
KFR1 160806Z 13002KT 18/14 A2995 RMK A01 T01750137  RH  078%=      5-min Rain = 0
KFR1 160807Z 12001KT 18/14 A2995 RMK A01 T01750136  RH  078%=      5-min Rain = 0
KFR1 160808Z 19000KT 18/14 A2995 RMK A01 T01750137  RH  078%=      5-min Rain = 0
KFR1 160809Z 21000KT 17/14 A2995 RMK A01 T01740138  RH  079%=      5-min Rain = 0
KFR1 160810Z 22002KT 17/14 A2996 RMK A01 T01740139  RH  080%=      5-min Rain = 0
KFR1 160811Z 22003KT 17/14 A2996 RMK A01 T01740137  RH  079%=      5-min Rain = 0
KFR1 160812Z 22005KT 17/14 A2996 RMK A01 T01740138  RH  080%=      5-min Rain = 0
KFR1 160813Z 22006KT 17/14 A2996 RMK A01 T01740141  RH  081%=      5-min Rain = 0
KFR1 160814Z 22008KT 17/14 A2996 RMK A01 T01730139  RH  080%=      5-min Rain = 0
KFR1 160815Z 22008KT 17/14 A2996 RMK A01 T01730138  RH  080%=      5-min Rain = 0
KFR1 160816Z 23008KT 17/14 A2997 RMK A01 T01740138  RH  079%=      5-min Rain = 0
KFR1 160817Z 25006KT 17/14 A2997 RMK A01 T01740138  RH  079%=      5-min Rain = 0
KFR1 160818Z 26007KT 17/14 A2997 RMK A01 T01740139  RH  080%=      5-min Rain = 0
KFR1 160819Z 27006KT 17/14 A2996 RMK A01 T01730139  RH  080%=      5-min Rain = 0
KFR1 160820Z 28006KT 17/14 A2996 RMK A01 T01730139  RH  080%=      5-min Rain = 0
KFR1 160821Z 30005KT 17/14 A2995 RMK A01 T01730139  RH  081%=      5-min Rain = 0
KFR1 160822Z 31005KT 17/14 A2995 RMK A01 T01730140  RH  081%=      5-min Rain = 0
KFR1 160823Z 33005KT 17/14 A2995 RMK A01 T01730139  RH  081%=      5-min Rain = 0
KFR1 160824Z 33003KT 17/14 A2995 RMK A01 T01720138  RH  080%=      5-min Rain = 0
KFR1 160825Z 02002KT 17/14 A2995 RMK A01 T01720138  RH  080%=      5-min Rain = 0
KFR1 160826Z 13001KT 17/14 A2995 RMK A01 T01720139  RH  081%=      5-min Rain = 0
KFR1 160827Z 16003KT 17/14 A2995 RMK A01 T01720139  RH  081%=      5-min Rain = 0
KFR1 160828Z 18004KT 17/14 A2996 RMK A01 T01720139  RH  081%=      5-min Rain = 0
KFR1 160829Z 18006KT 17/14 A2996 RMK A01 T01720140  RH  082%=      5-min Rain = 0
KFR1 160830Z 19008KT 17/14 A2996 RMK A01 T01720140  RH  082%=      5-min Rain = 0
KFR1 160831Z 19008KT 17/14 A2996 RMK A01 T01710140  RH  082%=      5-min Rain = 0
KFR1 160832Z 20008KT 17/14 A2996 RMK A01 T01710141  RH  082%=      5-min Rain = 0
KFR1 160833Z 20008KT 17/14 A2996 RMK A01 T01710141  RH  082%=      5-min Rain = 0
KFR1 160834Z 20006KT 17/14 A2996 RMK A01 T01710140  RH  082%=      5-min Rain = 0
KFR1 160835Z 20006KT 17/14 A2996 RMK A01 T01710140  RH  082%=      5-min Rain = 0
KFR1 160836Z 21004KT 17/14 A2996 RMK A01 T01710139  RH  081%=      5-min Rain = 0
KFR1 160837Z 31001KT 17/14 A2995 RMK A01 T01710138  RH  081%=      5-min Rain = 0
KFR1 160838Z 35003KT 17/14 A2995 RMK A01 T01720135  RH  079%=      5-min Rain = 0
KFR1 160839Z 35005KT 17/14 A2995 RMK A01 T01740137  RH  079%=      5-min Rain = 0
KFR1 160840Z 36008KT 17/14 A2994 RMK A01 T01740137  RH  079%=      5-min Rain = 0
KFR1 160841Z 00008KT 17/14 A2994 RMK A01 T01730138  RH  080%=      5-min Rain = 0
KFR1 160842Z 01009KT 17/14 A2993 RMK A01 T01720138  RH  080%=      5-min Rain = 0
KFR1 160843Z 00008KT 17/14 A2993 RMK A01 T01720137  RH  080%=      5-min Rain = 0
KFR1 160844Z 01008KT 17/14 A2993 RMK A01 T01720137  RH  080%=      5-min Rain = 0
KFR1 160845Z 01006KT 17/14 A2993 RMK A01 T01730138  RH  080%=      5-min Rain = 0
KFR1 160846Z 01006KT 17/14 A2993 RMK A01 T01730140  RH  081%=      5-min Rain = 0
KFR1 160847Z 02005KT 17/14 A2993 RMK A01 T01730141  RH  082%=      5-min Rain = 0
KFR1 160848Z 02003KT 17/14 A2994 RMK A01 T01730141  RH  082%=      5-min Rain = 0
KFR1 160849Z 04002KT 17/14 A2994 RMK A01 T01720140  RH  082%=      5-min Rain = 0
KFR1 160850Z 05003KT 17/14 A2994 RMK A01 T01720139  RH  081%=      5-min Rain = 0
KFR1 160851Z 05002KT 17/14 A2995 RMK A01 T01720138  RH  080%=      5-min Rain = 0
KFR1 160852Z 08002KT 17/14 A2995 RMK A01 T01730138  RH  080%=      5-min Rain = 0
KFR1 160853Z 09002KT 17/14 A2995 RMK A01 T01730139  RH  080%=      5-min Rain = 0
KFR1 160854Z 10002KT 17/14 A2995 RMK A01 T01730137  RH  080%=      5-min Rain = 0
KFR1 160855Z 09003KT 17/14 A2995 RMK A01 T01730138  RH  080%=      5-min Rain = 0
KFR1 160856Z 10003KT 17/14 A2995 RMK A01 T01730137  RH  079%=      5-min Rain = 0
KFR1 160857Z 10004KT 17/14 A2995 RMK A01 T01730138  RH  080%=      5-min Rain = 0
KFR1 160858Z 11004KT 17/14 A2995 RMK A01 T01730140  RH  081%=      5-min Rain = 0
KFR1 160859Z 09004KT 17/14 A2995 RMK A01 T01720140  RH  081%=      5-min Rain = 0
KFR1 160900Z 08004KT 17/14 A2995 RMK A01 T01710140  RH  082%=      5-min Rain = 0
KFR1 160901Z 06003KT 17/14 A2995 RMK A01 T01700140  RH  082%=      5-min Rain = 0
KFR1 160902Z 05003KT 17/14 A2995 RMK A01 T01700139  RH  082%=      5-min Rain = 0
KFR1 160903Z 05004KT 17/14 A2995 RMK A01 T01700139  RH  082%=      5-min Rain = 0
KFR1 160904Z 05004KT 17/14 A2995 RMK A01 T01700140  RH  083%=      5-min Rain = 0
KFR1 160905Z 04005KT 17/14 A2995 RMK A01 T01700140  RH  083%=      5-min Rain = 0
KFR1 160906Z 04005KT 17/14 A2995 RMK A01 T01700140  RH  082%=      5-min Rain = 0
KFR1 160907Z 03004KT 17/14 A2995 RMK A01 T01690139  RH  082%=      5-min Rain = 0
KFR1 160908Z 03002KT 17/14 A2995 RMK A01 T01700140  RH  082%=      5-min Rain = 0
KFR1 160909Z 04002KT 17/14 A2995 RMK A01 T01690141  RH  083%=      5-min Rain = 0
KFR1 160910Z 06002KT 17/14 A2996 RMK A01 T01690141  RH  084%=      5-min Rain = 0
KFR1 160911Z 09002KT 17/14 A2996 RMK A01 T01690141  RH  084%=      5-min Rain = 0
KFR1 160912Z 08002KT 17/14 A2996 RMK A01 T01680141  RH  084%=      5-min Rain = 0
KFR1 160913Z 09002KT 17/14 A2996 RMK A01 T01680140  RH  084%=      5-min Rain = 0
KFR1 160914Z 11002KT 17/14 A2997 RMK A01 T01680139  RH  083%=      5-min Rain = 0
KFR1 160915Z 09002KT 17/14 A2997 RMK A01 T01690140  RH  083%=      5-min Rain = 0
KFR1 160916Z 11002KT 17/14 A2997 RMK A01 T01690140  RH  083%=      5-min Rain = 0
KFR1 160917Z 12003KT 17/14 A2997 RMK A01 T01700140  RH  083%=      5-min Rain = 0
KFR1 160918Z 12003KT 17/14 A2997 RMK A01 T01700140  RH  082%=      5-min Rain = 0
KFR1 160919Z 11003KT 17/14 A2997 RMK A01 T01710140  RH  082%=      5-min Rain = 0
KFR1 160920Z 11003KT 17/14 A2997 RMK A01 T01710140  RH  082%=      5-min Rain = 0
KFR1 160921Z 11002KT 17/14 A2997 RMK A01 T01720139  RH  081%=      5-min Rain = 0
KFR1 160922Z 12002KT 17/14 A2997 RMK A01 T01730140  RH  081%=      5-min Rain = 0
KFR1 160923Z 11003KT 17/14 A2997 RMK A01 T01730140  RH  081%=      5-min Rain = 0
KFR1 160924Z 12003KT 17/14 A2997 RMK A01 T01730140  RH  081%=      5-min Rain = 0
KFR1 160925Z 10004KT 17/14 A2997 RMK A01 T01730141  RH  081%=      5-min Rain = 0
KFR1 160926Z 08003KT 17/14 A2998 RMK A01 T01730140  RH  081%=      5-min Rain = 0
KFR1 160927Z 11002KT 17/14 A2998 RMK A01 T01730140  RH  081%=      5-min Rain = 0
KFR1 160928Z 11003KT 17/14 A2998 RMK A01 T01740139  RH  080%=      5-min Rain = 0
KFR1 160929Z 10003KT 17/14 A2998 RMK A01 T01740140  RH  080%=      5-min Rain = 0
KFR1 160930Z 09004KT 17/14 A2998 RMK A01 T01740141  RH  081%=      5-min Rain = 0
KFR1 160931Z 07005KT 17/14 A2998 RMK A01 T01740141  RH  081%=      5-min Rain = 0
KFR1 160932Z 04006KT 17/14 A2998 RMK A01 T01730141  RH  082%=      5-min Rain = 0
KFR1 160933Z 04006KT 17/14 A2998 RMK A01 T01730141  RH  082%=      5-min Rain = 0
KFR1 160934Z 04006KT 17/14 A2998 RMK A01 T01730142  RH  082%=      5-min Rain = 0
KFR1 160935Z 05005KT 17/14 A2997 RMK A01 T01740141  RH  081%=      5-min Rain = 0
KFR1 160936Z 04006KT 17/14 A2997 RMK A01 T01740141  RH  081%=      5-min Rain = 0
KFR1 160937Z 05006KT 17/14 A2998 RMK A01 T01740142  RH  082%=      5-min Rain = 0
KFR1 160938Z 04005KT 17/14 A2998 RMK A01 T01740143  RH  082%=      5-min Rain = 0
KFR1 160939Z 05005KT 17/14 A2997 RMK A01 T01730143  RH  082%=      5-min Rain = 0
KFR1 160940Z 05006KT 17/14 A2997 RMK A01 T01730143  RH  082%=      5-min Rain = 0
KFR1 160941Z 04006KT 17/14 A2997 RMK A01 T01730143  RH  083%=      5-min Rain = 0
KFR1 160942Z 04005KT 17/14 A2997 RMK A01 T01720143  RH  083%=      5-min Rain = 0
KFR1 160943Z 05007KT 17/14 A2997 RMK A01 T01720144  RH  084%=      5-min Rain = 0
KFR1 160944Z 05007KT 17/14 A2997 RMK A01 T01710144  RH  084%=      5-min Rain = 0
KFR1 160945Z 05007KT 17/14 A2997 RMK A01 T01710144  RH  084%=      5-min Rain = 0
KFR1 160946Z 05007KT 17/15 A2997 RMK A01 T01700145  RH  085%=      5-min Rain = 0
KFR1 160947Z 05005KT 17/15 A2997 RMK A01 T01700145  RH  085%=      5-min Rain = 0
KFR1 160948Z 05006KT 17/15 A2997 RMK A01 T01690146  RH  086%=      5-min Rain = 0
KFR1 160949Z 05006KT 17/15 A2997 RMK A01 T01690146  RH  086%=      5-min Rain = 0
KFR1 160950Z 05006KT 17/15 A2997 RMK A01 T01690146  RH  086%=      5-min Rain = 0
KFR1 160951Z 05006KT 17/15 A2997 RMK A01 T01680146  RH  087%=      5-min Rain = 0
KFR1 160952Z 06007KT 17/15 A2997 RMK A01 T01680146  RH  086%=      5-min Rain = 0
KFR1 160953Z 05008KT 17/15 A2997 RMK A01 T01680145  RH  086%=      5-min Rain = 0
KFR1 160954Z 06007KT 17/15 A2997 RMK A01 T01690145  RH  086%=      5-min Rain = 0
KFR1 160955Z 06006KT 17/15 A2997 RMK A01 T01690146  RH  087%=      5-min Rain = 0
KFR1 160956Z 06007KT 17/15 A2997 RMK A01 T01680147  RH  087%=      5-min Rain = 0
KFR1 160957Z 07006KT 17/15 A2997 RMK A01 T01680147  RH  087%=      5-min Rain = 0
KFR1 160958Z 07007KT 17/15 A2997 RMK A01 T01680147  RH  088%=      5-min Rain = 0
KFR1 160959Z 07007KT 17/15 A2997 RMK A01 T01680147  RH  088%=      5-min Rain = 0
KFR1 161000Z 08005KT 17/15 A2997 RMK A01 T01680147  RH  088%=      5-min Rain = 0
KFR1 161001Z 07006KT 17/15 A2997 RMK A01 T01670148  RH  088%=      5-min Rain = 0
KFR1 161002Z 07005KT 17/15 A2997 RMK A01 T01670148  RH  089%=      5-min Rain = 0
KFR1 161003Z 07004KT 17/15 A2997 RMK A01 T01660147  RH  088%=      5-min Rain = 0
KFR1 161004Z 08004KT 17/15 A2997 RMK A01 T01660148  RH  089%=      5-min Rain = 0
KFR1 161005Z 08003KT 17/15 A2997 RMK A01 T01660148  RH  089%=      5-min Rain = 0
KFR1 161006Z 08003KT 17/15 A2997 RMK A01 T01660149  RH  089%=      5-min Rain = 0
KFR1 161007Z 09003KT 17/15 A2997 RMK A01 T01660148  RH  090%=      5-min Rain = 0
KFR1 161008Z 09004KT 17/15 A2997 RMK A01 T01650148  RH  090%=      5-min Rain = 0
KFR1 161009Z 09003KT 17/15 A2997 RMK A01 T01650148  RH  089%=      5-min Rain = 0
KFR1 161010Z 10004KT 17/15 A2997 RMK A01 T01660148  RH  089%=      5-min Rain = 0
KFR1 161011Z 11005KT 17/15 A2997 RMK A01 T01660148  RH  089%=      5-min Rain = 0
KFR1 161012Z 10005KT 17/15 A2997 RMK A01 T01660148  RH  089%=      5-min Rain = 0
KFR1 161013Z 11005KT 17/15 A2997 RMK A01 T01660148  RH  089%=      5-min Rain = 0
KFR1 161014Z 10006KT 17/15 A2997 RMK A01 T01670148  RH  088%=      5-min Rain = 0
KFR1 161015Z 10004KT 17/15 A2997 RMK A01 T01670147  RH  088%=      5-min Rain = 0
KFR1 161016Z 10004KT 17/15 A2997 RMK A01 T01680148  RH  088%=      5-min Rain = 0
KFR1 161017Z 08003KT 17/15 A2997 RMK A01 T01680148  RH  088%=      5-min Rain = 0
KFR1 161018Z 09003KT 17/15 A2997 RMK A01 T01680148  RH  088%=      5-min Rain = 0
KFR1 161019Z 09004KT 17/15 A2997 RMK A01 T01670148  RH  088%=      5-min Rain = 0
KFR1 161020Z 07005KT 17/15 A2997 RMK A01 T01670147  RH  088%=      5-min Rain = 0
KFR1 161021Z 07004KT 17/15 A2997 RMK A01 T01680147  RH  087%=      5-min Rain = 0
KFR1 161022Z 09002KT 17/15 A2997 RMK A01 T01690146  RH  086%=      5-min Rain = 0
KFR1 161023Z 10002KT 17/15 A2997 RMK A01 T01700147  RH  086%=      5-min Rain = 0
KFR1 161024Z 13002KT 17/15 A2997 RMK A01 T01700147  RH  087%=      5-min Rain = 0
KFR1 161025Z 16002KT 17/15 A2997 RMK A01 T01700148  RH  087%=      5-min Rain = 0
KFR1 161026Z 18002KT 17/15 A2998 RMK A01 T01700148  RH  087%=      5-min Rain = 0
KFR1 161027Z 18003KT 17/15 A2998 RMK A01 T01700150  RH  088%=      5-min Rain = 0
KFR1 161028Z 19004KT 17/15 A2998 RMK A01 T01690150  RH  089%=      5-min Rain = 0
KFR1 161029Z 20005KT 17/15 A2998 RMK A01 T01690151  RH  089%=      5-min Rain = 0
KFR1 161030Z 20005KT 17/15 A2998 RMK A01 T01680151  RH  089%=      5-min Rain = 0
KFR1 161031Z 21005KT 17/15 A2998 RMK A01 T01680150  RH  089%=      5-min Rain = 0
KFR1 161032Z 21005KT 17/15 A2998 RMK A01 T01690150  RH  088%=      5-min Rain = 0
KFR1 161033Z 22004KT 17/15 A2998 RMK A01 T01690149  RH  088%=      5-min Rain = 0
KFR1 161034Z 21004KT 17/15 A2998 RMK A01 T01690149  RH  088%=      5-min Rain = 0
KFR1 161035Z 21003KT 17/15 A2998 RMK A01 T01690149  RH  088%=      5-min Rain = 0
KFR1 161036Z 20003KT 17/15 A2998 RMK A01 T01690149  RH  088%=      5-min Rain = 0
KFR1 161037Z 18002KT 17/15 A2998 RMK A01 T01700148  RH  087%=      5-min Rain = 0
KFR1 161038Z 16001KT 17/15 A2997 RMK A01 T01690146  RH  086%=      5-min Rain = 0
KFR1 161039Z 17001KT 17/15 A2997 RMK A01 T01700147  RH  086%=      5-min Rain = 0
KFR1 161040Z 15001KT 17/15 A2997 RMK A01 T01710148  RH  087%=      5-min Rain = 0
KFR1 161041Z 13001KT 17/15 A2997 RMK A01 T01710149  RH  087%=      5-min Rain = 0
KFR1 161042Z 15002KT 17/15 A2997 RMK A01 T01710148  RH  086%=      5-min Rain = 0
KFR1 161043Z 16003KT 17/15 A2997 RMK A01 T01710148  RH  086%=      5-min Rain = 0
KFR1 161044Z 16002KT 17/15 A2997 RMK A01 T01700149  RH  087%=      5-min Rain = 0
KFR1 161045Z 16002KT 17/15 A2997 RMK A01 T01700150  RH  088%=      5-min Rain = 0
KFR1 161046Z 18002KT 17/15 A2997 RMK A01 T01700149  RH  088%=      5-min Rain = 0
KFR1 161047Z 19002KT 17/15 A2997 RMK A01 T01690149  RH  088%=      5-min Rain = 0
KFR1 161048Z 19003KT 17/15 A2997 RMK A01 T01690150  RH  088%=      5-min Rain = 0
KFR1 161049Z 18003KT 17/15 A2997 RMK A01 T01690151  RH  089%=      5-min Rain = 0
KFR1 161050Z 17003KT 17/15 A2997 RMK A01 T01690153  RH  090%=      5-min Rain = 0
KFR1 161051Z 17003KT 17/15 A2997 RMK A01 T01680153  RH  091%=      5-min Rain = 0
KFR1 161052Z 17002KT 17/15 A2996 RMK A01 T01670151  RH  090%=      5-min Rain = 0
KFR1 161053Z 15002KT 17/15 A2996 RMK A01 T01670151  RH  090%=      5-min Rain = 0
KFR1 161054Z 10001KT 17/15 A2996 RMK A01 T01660148  RH  089%=      5-min Rain = 0
KFR1 161055Z 20000KT 17/15 A2996 RMK A01 T01670146  RH  087%=      5-min Rain = 0
KFR1 161056Z 19000KT 17/15 A2996 RMK A01 T01670147  RH  088%=      5-min Rain = 0
KFR1 161057Z 00000KT 17/15 A2996 RMK A01 T01680148  RH  088%=      5-min Rain = 0
KFR1 161058Z 00000KT 17/15 A2996 RMK A01 T01680149  RH  089%=      5-min Rain = 0
KFR1 161059Z 00000KT 17/15 A2996 RMK A01 T01680149  RH  089%=      5-min Rain = 0
KFR1 161100Z 20000KT 17/15 A2996 RMK A01 T01680149  RH  088%=      5-min Rain = 0
KFR1 161101Z 10000KT 17/15 A2996 RMK A01 T01680149  RH  088%=      5-min Rain = 0
KFR1 161102Z 08001KT 17/15 A2996 RMK A01 T01680148  RH  088%=      5-min Rain = 0
KFR1 161103Z 01001KT 17/15 A2996 RMK A01 T01670148  RH  088%=      5-min Rain = 0
KFR1 161104Z 01000KT 17/15 A2996 RMK A01 T01670149  RH  089%=      5-min Rain = 0
KFR1 161105Z 35000KT 17/15 A2996 RMK A01 T01670150  RH  089%=      5-min Rain = 0
KFR1 161106Z 33001KT 17/15 A2996 RMK A01 T01670149  RH  089%=      5-min Rain = 0
KFR1 161107Z 32002KT 17/15 A2996 RMK A01 T01670150  RH  090%=      5-min Rain = 0
KFR1 161108Z 33003KT 17/15 A2996 RMK A01 T01670150  RH  090%=      5-min Rain = 0
KFR1 161109Z 33004KT 17/15 A2996 RMK A01 T01670149  RH  089%=      5-min Rain = 0
KFR1 161110Z 34004KT 17/15 A2996 RMK A01 T01670149  RH  089%=      5-min Rain = 0
KFR1 161111Z 33004KT 17/15 A2996 RMK A01 T01670148  RH  089%=      5-min Rain = 0
KFR1 161112Z 33005KT 17/15 A2996 RMK A01 T01670149  RH  089%=      5-min Rain = 0
KFR1 161113Z 33005KT 17/15 A2996 RMK A01 T01670149  RH  089%=      5-min Rain = 0
KFR1 161114Z 32005KT 17/15 A2996 RMK A01 T01670150  RH  090%=      5-min Rain = 0
KFR1 161115Z 32006KT 17/15 A2996 RMK A01 T01680152  RH  090%=      5-min Rain = 0
KFR1 161116Z 33006KT 17/15 A2996 RMK A01 T01680152  RH  090%=      5-min Rain = 0
KFR1 161117Z 32007KT 17/15 A2996 RMK A01 T01680152  RH  090%=      5-min Rain = 0
KFR1 161118Z 32007KT 17/15 A2996 RMK A01 T01690150  RH  089%=      5-min Rain = 0
KFR1 161119Z 33007KT 17/15 A2996 RMK A01 T01690149  RH  088%=      5-min Rain = 0
KFR1 161120Z 33006KT 17/15 A2996 RMK A01 T01690149  RH  088%=      5-min Rain = 0
KFR1 161121Z 32007KT 17/15 A2996 RMK A01 T01700150  RH  088%=      5-min Rain = 0
KFR1 161122Z 32007KT 17/15 A2996 RMK A01 T01700150  RH  088%=      5-min Rain = 0
KFR1 161123Z 32006KT 17/15 A2996 RMK A01 T01700149  RH  087%=      5-min Rain = 0
KFR1 161124Z 32005KT 17/15 A2996 RMK A01 T01700149  RH  087%=      5-min Rain = 0
KFR1 161125Z 31007KT 17/15 A2996 RMK A01 T01700150  RH  088%=      5-min Rain = 0
KFR1 161126Z 31008KT 17/15 A2996 RMK A01 T01700150  RH  088%=      5-min Rain = 0
KFR1 161127Z 31007KT 17/15 A2996 RMK A01 T01700149  RH  088%=      5-min Rain = 0
KFR1 161128Z 31006KT 17/15 A2996 RMK A01 T01700148  RH  087%=      5-min Rain = 0
KFR1 161129Z 31007KT 17/15 A2996 RMK A01 T01700149  RH  087%=      5-min Rain = 0
KFR1 161130Z 31007KT 17/15 A2996 RMK A01 T01700149  RH  087%=      5-min Rain = 0
KFR1 161131Z 31007KT 17/15 A2996 RMK A01 T01700148  RH  087%=      5-min Rain = 0
KFR1 161132Z 30006KT 17/15 A2996 RMK A01 T01690148  RH  087%=      5-min Rain = 0
KFR1 161133Z 30006KT 17/15 A2996 RMK A01 T01690149  RH  088%=      5-min Rain = 0
KFR1 161134Z 29005KT 17/15 A2996 RMK A01 T01690148  RH  088%=      5-min Rain = 0
KFR1 161135Z 29006KT 17/15 A2996 RMK A01 T01690148  RH  088%=      5-min Rain = 0
KFR1 161136Z 29007KT 17/15 A2996 RMK A01 T01690148  RH  088%=      5-min Rain = 0
KFR1 161137Z 29007KT 17/15 A2996 RMK A01 T01690148  RH  087%=      5-min Rain = 0
KFR1 161138Z 29006KT 17/15 A2996 RMK A01 T01680147  RH  087%=      5-min Rain = 0
KFR1 161139Z 28007KT 17/15 A2996 RMK A01 T01690148  RH  088%=      5-min Rain = 0
KFR1 161140Z 28006KT 17/15 A2996 RMK A01 T01680149  RH  088%=      5-min Rain = 0
KFR1 161141Z 28006KT 17/15 A2996 RMK A01 T01680149  RH  089%=      5-min Rain = 0
KFR1 161142Z 26006KT 17/15 A2996 RMK A01 T01670149  RH  089%=      5-min Rain = 0
KFR1 161143Z 28007KT 17/15 A2996 RMK A01 T01670149  RH  089%=      5-min Rain = 0
KFR1 161144Z 28007KT 17/15 A2996 RMK A01 T01670149  RH  089%=      5-min Rain = 0
KFR1 161145Z 27006KT 17/15 A2996 RMK A01 T01670148  RH  088%=      5-min Rain = 0
KFR1 161146Z 27006KT 17/15 A2996 RMK A01 T01670147  RH  088%=      5-min Rain = 0
KFR1 161147Z 27007KT 17/15 A2995 RMK A01 T01670147  RH  088%=      5-min Rain = 0
KFR1 161148Z 26007KT 17/15 A2995 RMK A01 T01670147  RH  088%=      5-min Rain = 0
KFR1 161149Z 26008KT 17/15 A2995 RMK A01 T01680148  RH  088%=      5-min Rain = 0
KFR1 161150Z 26007KT 17/15 A2995 RMK A01 T01670148  RH  088%=      5-min Rain = 0
KFR1 161151Z 26007KT 17/15 A2995 RMK A01 T01670148  RH  088%=      5-min Rain = 0
KFR1 161152Z 27006KT 17/15 A2995 RMK A01 T01670148  RH  088%=      5-min Rain = 0
KFR1 161153Z 26007KT 17/15 A2995 RMK A01 T01670148  RH  088%=      5-min Rain = 0
KFR1 161154Z 26008KT 17/15 A2995 RMK A01 T01670148  RH  088%=      5-min Rain = 0
KFR1 161155Z 26006KT 17/15 A2995 RMK A01 T01670148  RH  088%=      5-min Rain = 0
KFR1 161156Z 27006KT 17/15 A2995 RMK A01 T01670147  RH  088%=      5-min Rain = 0
KFR1 161157Z 27006KT 17/15 A2995 RMK A01 T01670148  RH  088%=      5-min Rain = 0
KFR1 161158Z 27007KT 17/15 A2995 RMK A01 T01670147  RH  088%=      5-min Rain = 0
KFR1 161159Z 27006KT 17/15 A2995 RMK A01 T01670147  RH  088%=      5-min Rain = 0
KFR1 161200Z 27007KT 17/15 A2995 RMK A01 T01670146  RH  088%=      5-min Rain = 0
KFR1 161201Z 27007KT 17/15 A2995 RMK A01 T01680145  RH  087%=      5-min Rain = 0
KFR1 161202Z 27008KT 17/15 A2995 RMK A01 T01680146  RH  087%=      5-min Rain = 0
KFR1 161203Z 28007KT 17/15 A2995 RMK A01 T01680146  RH  087%=      5-min Rain = 0
KFR1 161204Z 27007KT 17/15 A2995 RMK A01 T01680146  RH  086%=      5-min Rain = 0
KFR1 161205Z 27007KT 17/15 A2995 RMK A01 T01680145  RH  086%=      5-min Rain = 0
KFR1 161206Z 29009KT 17/15 A2995 RMK A01 T01680146  RH  086%=      5-min Rain = 0
KFR1 161207Z 28008KT 17/15 A2995 RMK A01 T01680145  RH  086%=      5-min Rain = 0
KFR1 161208Z 28007KT 17/15 A2995 RMK A01 T01680145  RH  086%=      5-min Rain = 0
KFR1 161209Z 28008KT 17/15 A2995 RMK A01 T01680145  RH  086%=      5-min Rain = 0
KFR1 161210Z 27007KT 17/15 A2995 RMK A01 T01690145  RH  086%=      5-min Rain = 0
KFR1 161211Z 28008KT 17/15 A2994 RMK A01 T01690146  RH  086%=      5-min Rain = 0
KFR1 161212Z 27007KT 17/15 A2994 RMK A01 T01690146  RH  087%=      5-min Rain = 0
KFR1 161213Z 28009KT 17/15 A2994 RMK A01 T01690146  RH  087%=      5-min Rain = 0
KFR1 161214Z 26007KT 17/15 A2994 RMK A01 T01690147  RH  087%=      5-min Rain = 0
KFR1 161215Z 27006KT 17/15 A2994 RMK A01 T01690147  RH  087%=      5-min Rain = 0
KFR1 161216Z 27006KT 17/15 A2994 RMK A01 T01690146  RH  087%=      5-min Rain = 0
KFR1 161217Z 27007KT 17/15 A2994 RMK A01 T01690146  RH  087%=      5-min Rain = 0
KFR1 161218Z 27008KT 17/15 A2994 RMK A01 T01680146  RH  087%=      5-min Rain = 0
KFR1 161219Z 27007KT 17/15 A2994 RMK A01 T01680146  RH  087%=      5-min Rain = 0
KFR1 161220Z 27007KT 17/15 A2994 RMK A01 T01680146  RH  087%=      5-min Rain = 0
KFR1 161221Z 27007KT 17/15 A2994 RMK A01 T01680146  RH  087%=      5-min Rain = 0
KFR1 161222Z 28009KT 17/15 A2994 RMK A01 T01680146  RH  087%=      5-min Rain = 0
KFR1 161223Z 27008KT 17/15 A2994 RMK A01 T01680145  RH  086%=      5-min Rain = 0
KFR1 161224Z 26007KT 17/15 A2994 RMK A01 T01690145  RH  086%=      5-min Rain = 0
KFR1 161225Z 26009KT 17/15 A2994 RMK A01 T01690145  RH  086%=      5-min Rain = 0
KFR1 161226Z 26008KT 17/15 A2994 RMK A01 T01690145  RH  086%=      5-min Rain = 0
KFR1 161227Z 28007KT 17/14 A2994 RMK A01 T01690144  RH  085%=      5-min Rain = 0
KFR1 161228Z 29009KT 17/15 A2994 RMK A01 T01690145  RH  085%=      5-min Rain = 0
KFR1 161229Z 28006KT 17/15 A2994 RMK A01 T01700145  RH  085%=      5-min Rain = 0
KFR1 161230Z 28007KT 17/15 A2994 RMK A01 T01700145  RH  085%=      5-min Rain = 0
KFR1 161231Z 29007KT 17/15 A2995 RMK A01 T01710145  RH  085%=      5-min Rain = 0
KFR1 161232Z 29007KT 17/15 A2995 RMK A01 T01710145  RH  084%=      5-min Rain = 0
KFR1 161233Z 27005KT 17/15 A2995 RMK A01 T01720145  RH  084%=      5-min Rain = 0
KFR1 161234Z 27007KT 17/15 A2995 RMK A01 T01720147  RH  085%=      5-min Rain = 0
KFR1 161235Z 27008KT 17/15 A2995 RMK A01 T01720146  RH  084%=      5-min Rain = 0
KFR1 161236Z 28006KT 17/15 A2995 RMK A01 T01720145  RH  084%=      5-min Rain = 0
KFR1 161237Z 29006KT 17/15 A2995 RMK A01 T01720146  RH  084%=      5-min Rain = 0
KFR1 161238Z 27004KT 17/15 A2995 RMK A01 T01720146  RH  085%=      5-min Rain = 0
KFR1 161239Z 26005KT 17/15 A2995 RMK A01 T01720148  RH  086%=      5-min Rain = 0
KFR1 161240Z 24006KT 17/15 A2995 RMK A01 T01720148  RH  086%=      5-min Rain = 0
KFR1 161241Z 25007KT 17/15 A2995 RMK A01 T01710147  RH  086%=      5-min Rain = 0
KFR1 161242Z 25006KT 17/15 A2995 RMK A01 T01710147  RH  086%=      5-min Rain = 0
KFR1 161243Z 24006KT 17/15 A2995 RMK A01 T01710147  RH  086%=      5-min Rain = 0
KFR1 161244Z 24006KT 17/15 A2995 RMK A01 T01710147  RH  086%=      5-min Rain = 0
KFR1 161245Z 25005KT 17/15 A2996 RMK A01 T01710147  RH  086%=      5-min Rain = 0
KFR1 161246Z 26005KT 17/15 A2996 RMK A01 T01710147  RH  086%=      5-min Rain = 0
KFR1 161247Z 27003KT 17/15 A2996 RMK A01 T01710147  RH  086%=      5-min Rain = 0
KFR1 161248Z 29003KT 17/15 A2996 RMK A01 T01710147  RH  086%=      5-min Rain = 0
KFR1 161249Z 32003KT 17/15 A2996 RMK A01 T01710147  RH  086%=      5-min Rain = 0
KFR1 161250Z 33004KT 17/15 A2997 RMK A01 T01710148  RH  087%=      5-min Rain = 0
KFR1 161251Z 31004KT 17/15 A2997 RMK A01 T01700149  RH  087%=      5-min Rain = 0
KFR1 161252Z 30004KT 17/15 A2997 RMK A01 T01700149  RH  088%=      5-min Rain = 0
KFR1 161253Z 29005KT 17/15 A2996 RMK A01 T01700149  RH  087%=      5-min Rain = 0
KFR1 161254Z 31004KT 17/15 A2997 RMK A01 T01700147  RH  086%=      5-min Rain = 0
KFR1 161255Z 32006KT 17/15 A2997 RMK A01 T01710147  RH  086%=      5-min Rain = 0
KFR1 161256Z 31005KT 17/15 A2997 RMK A01 T01710148  RH  086%=      5-min Rain = 0
KFR1 161257Z 32005KT 17/15 A2997 RMK A01 T01710147  RH  086%=      5-min Rain = 0
KFR1 161258Z 33004KT 17/15 A2997 RMK A01 T01720148  RH  086%=      5-min Rain = 0
KFR1 161259Z 33006KT 17/15 A2997 RMK A01 T01720148  RH  086%=      5-min Rain = 0
KFR1 161300Z 35005KT 17/15 A2997 RMK A01 T01720147  RH  085%=      5-min Rain = 0
KFR1 161301Z 00006KT 17/15 A2997 RMK A01 T01720148  RH  086%=      5-min Rain = 0
KFR1 161302Z 01005KT 17/15 A2997 RMK A01 T01720148  RH  086%=      5-min Rain = 0
KFR1 161303Z 36007KT 17/15 A2998 RMK A01 T01720149  RH  087%=      5-min Rain = 0
KFR1 161304Z 01006KT 17/15 A2998 RMK A01 T01720150  RH  087%=      5-min Rain = 0
KFR1 161305Z 00008KT 17/15 A2998 RMK A01 T01720150  RH  087%=      5-min Rain = 0
KFR1 161306Z 36008KT 17/15 A2998 RMK A01 T01720149  RH  087%=      5-min Rain = 0
KFR1 161307Z 36009KT 17/15 A2998 RMK A01 T01720149  RH  086%=      5-min Rain = 0
KFR1 161308Z 36009KT 17/15 A2998 RMK A01 T01720148  RH  086%=      5-min Rain = 0
KFR1 161309Z 35007KT 17/15 A2998 RMK A01 T01730149  RH  086%=      5-min Rain = 0
KFR1 161310Z 35007KT 17/15 A2998 RMK A01 T01730149  RH  086%=      5-min Rain = 0
KFR1 161311Z 34007KT 17/15 A2998 RMK A01 T01730149  RH  086%=      5-min Rain = 0
KFR1 161312Z 35004KT 17/15 A2998 RMK A01 T01730150  RH  086%=      5-min Rain = 0
KFR1 161313Z 35003KT 17/15 A2998 RMK A01 T01720151  RH  087%=      5-min Rain = 0
KFR1 161314Z 35004KT 17/15 A2998 RMK A01 T01720151  RH  087%=      5-min Rain = 0
KFR1 161315Z 35005KT 17/15 A2998 RMK A01 T01720151  RH  087%=      5-min Rain = 0
KFR1 161316Z 03003KT 17/15 A2998 RMK A01 T01720150  RH  087%=      5-min Rain = 0
KFR1 161317Z 01003KT 17/15 A2998 RMK A01 T01720152  RH  088%=      5-min Rain = 0
KFR1 161318Z 01004KT 17/15 A2998 RMK A01 T01720152  RH  088%=      5-min Rain = 0
KFR1 161319Z 03003KT 17/15 A2999 RMK A01 T01720150  RH  087%=      5-min Rain = 0
KFR1 161320Z 04004KT 17/15 A2999 RMK A01 T01720151  RH  088%=      5-min Rain = 0
KFR1 161321Z 02004KT 17/15 A2999 RMK A01 T01720151  RH  088%=      5-min Rain = 0
KFR1 161322Z 03002KT 17/15 A2999 RMK A01 T01720152  RH  088%=      5-min Rain = 0
KFR1 161323Z 04002KT 17/15 A2999 RMK A01 T01720152  RH  088%=      5-min Rain = 0
KFR1 161324Z 06001KT 17/15 A2999 RMK A01 T01720152  RH  088%=      5-min Rain = 0
KFR1 161325Z 07000KT 17/15 A2999 RMK A01 T01720152  RH  088%=      5-min Rain = 0
KFR1 161326Z 01000KT 17/15 A2999 RMK A01 T01720152  RH  088%=      5-min Rain = 0
KFR1 161327Z 17000KT 17/15 A2999 RMK A01 T01720151  RH  088%=      5-min Rain = 0
KFR1 161328Z 18000KT 17/15 A30 RMK A01 T01720151  RH  088%=      5-min Rain = 0
KFR1 161329Z 00000KT 17/15 A30 RMK A01 T01720152  RH  088%=      5-min Rain = 0
KFR1 161330Z 00000KT 17/15 A30 RMK A01 T01720151  RH  088%=      5-min Rain = 0
KFR1 161331Z 28001KT 17/15 A30 RMK A01 T01720152  RH  088%=      5-min Rain = 0
KFR1 161332Z 27001KT 17/15 A30 RMK A01 T01730153  RH  088%=      5-min Rain = 0
KFR1 161333Z 25001KT 17/15 A30 RMK A01 T01730152  RH  088%=      5-min Rain = 0
KFR1 161334Z 30001KT 17/15 A30 RMK A01 T01730153  RH  088%=      5-min Rain = 0
KFR1 161335Z 33001KT 17/15 A30 RMK A01 T01730153  RH  088%=      5-min Rain = 0
KFR1 161336Z 34001KT 17/15 A30 RMK A01 T01730152  RH  088%=      5-min Rain = 0
KFR1 161337Z 34002KT 17/15 A30 RMK A01 T01740153  RH  088%=      5-min Rain = 0
KFR1 161338Z 33002KT 17/15 A30 RMK A01 T01740151  RH  086%=      5-min Rain = 0
KFR1 161339Z 33002KT 17/15 A30 RMK A01 T01740150  RH  086%=      5-min Rain = 0
KFR1 161340Z 02002KT 17/15 A30 RMK A01 T01740151  RH  086%=      5-min Rain = 0
KFR1 161341Z 02003KT 18/15 A30 RMK A01 T01750153  RH  087%=      5-min Rain = 0
KFR1 161342Z 02004KT 18/15 A30 RMK A01 T01750153  RH  087%=      5-min Rain = 0
KFR1 161343Z 02005KT 18/15 A3001 RMK A01 T01750152  RH  087%=      5-min Rain = 0
KFR1 161344Z 02003KT 18/15 A3001 RMK A01 T01750152  RH  086%=      5-min Rain = 0
KFR1 161345Z 02003KT 18/15 A3001 RMK A01 T01750153  RH  087%=      5-min Rain = 0
KFR1 161346Z 01003KT 18/15 A3001 RMK A01 T01760154  RH  087%=      5-min Rain = 0
KFR1 161347Z 36004KT 18/15 A3001 RMK A01 T01750153  RH  086%=      5-min Rain = 0
KFR1 161348Z 36004KT 18/15 A3001 RMK A01 T01760152  RH  086%=      5-min Rain = 0
KFR1 161349Z 00004KT 18/15 A3001 RMK A01 T01760153  RH  086%=      5-min Rain = 0
KFR1 161350Z 01003KT 18/15 A3001 RMK A01 T01760153  RH  087%=      5-min Rain = 0
KFR1 161351Z 01004KT 18/15 A3001 RMK A01 T01760153  RH  087%=      5-min Rain = 0
KFR1 161352Z 00004KT 18/15 A3001 RMK A01 T01760154  RH  087%=      5-min Rain = 0
KFR1 161353Z 35004KT 18/15 A3001 RMK A01 T01760152  RH  086%=      5-min Rain = 0
KFR1 161354Z 35004KT 18/15 A3001 RMK A01 T01760152  RH  086%=      5-min Rain = 0
KFR1 161355Z 00005KT 18/15 A3001 RMK A01 T01760152  RH  086%=      5-min Rain = 0
KFR1 161356Z 01005KT 18/15 A3001 RMK A01 T01760154  RH  087%=      5-min Rain = 0
KFR1 161357Z 00005KT 18/15 A3001 RMK A01 T01760154  RH  087%=      5-min Rain = 0
KFR1 161358Z 02005KT 18/15 A3001 RMK A01 T01760153  RH  086%=      5-min Rain = 0
KFR1 161359Z 01004KT 18/15 A3001 RMK A01 T01760153  RH  086%=      5-min Rain = 0
KFR1 161400Z 01005KT 18/15 A3001 RMK A01 T01760154  RH  087%=      5-min Rain = 0
KFR1 161401Z 01005KT 18/15 A3001 RMK A01 T01770154  RH  087%=      5-min Rain = 0
KFR1 161402Z 35004KT 18/15 A3001 RMK A01 T01770154  RH  087%=      5-min Rain = 0
KFR1 161403Z 34005KT 18/15 A3001 RMK A01 T01770152  RH  085%=      5-min Rain = 0
KFR1 161404Z 35005KT 18/15 A3001 RMK A01 T01770153  RH  086%=      5-min Rain = 0
KFR1 161405Z 35003KT 18/16 A3001 RMK A01 T01770155  RH  087%=      5-min Rain = 0
KFR1 161406Z 34003KT 18/16 A3002 RMK A01 T01770155  RH  087%=      5-min Rain = 0
KFR1 161407Z 33004KT 18/16 A3002 RMK A01 T01780155  RH  087%=      5-min Rain = 0
KFR1 161408Z 33005KT 18/15 A3002 RMK A01 T01780153  RH  085%=      5-min Rain = 0
KFR1 161409Z 34004KT 18/15 A3002 RMK A01 T01780153  RH  085%=      5-min Rain = 0
KFR1 161410Z 33004KT 18/15 A3002 RMK A01 T01780152  RH  085%=      5-min Rain = 0
KFR1 161411Z 31004KT 18/15 A3002 RMK A01 T01780154  RH  086%=      5-min Rain = 0
KFR1 161412Z 32004KT 18/15 A3002 RMK A01 T01780153  RH  085%=      5-min Rain = 0
KFR1 161413Z 31003KT 18/15 A3002 RMK A01 T01780154  RH  086%=      5-min Rain = 0
KFR1 161414Z 32005KT 18/15 A3002 RMK A01 T01790154  RH  085%=      5-min Rain = 0
KFR1 161415Z 31003KT 18/15 A3002 RMK A01 T01790154  RH  085%=      5-min Rain = 0
KFR1 161416Z 32004KT 18/15 A3002 RMK A01 T01790153  RH  085%=      5-min Rain = 0
KFR1 161417Z 32003KT 18/15 A3002 RMK A01 T01790154  RH  085%=      5-min Rain = 0
KFR1 161418Z 31003KT 18/15 A3002 RMK A01 T01790153  RH  085%=      5-min Rain = 0
KFR1 161419Z 30003KT 18/16 A3002 RMK A01 T01800156  RH  086%=      5-min Rain = 0
KFR1 161420Z 31003KT 18/16 A3002 RMK A01 T01810156  RH  085%=      5-min Rain = 0
KFR1 161421Z 32003KT 18/15 A3002 RMK A01 T01810154  RH  084%=      5-min Rain = 0
KFR1 161422Z 32004KT 18/16 A3002 RMK A01 T01810155  RH  085%=      5-min Rain = 0
KFR1 161423Z 31003KT 18/16 A3002 RMK A01 T01810156  RH  085%=      5-min Rain = 0
KFR1 161424Z 31004KT 18/16 A3002 RMK A01 T01820155  RH  084%=      5-min Rain = 0
KFR1 161425Z 30004KT 18/15 A3002 RMK A01 T01810154  RH  084%=      5-min Rain = 0
KFR1 161426Z 32004KT 18/15 A3002 RMK A01 T01810154  RH  084%=      5-min Rain = 0
KFR1 161427Z 32003KT 18/16 A3002 RMK A01 T01820157  RH  086%=      5-min Rain = 0
KFR1 161428Z 32001KT 18/16 A3002 RMK A01 T01830159  RH  086%=      5-min Rain = 0
KFR1 161429Z 32004KT 18/16 A3002 RMK A01 T01830156  RH  084%=      5-min Rain = 0
KFR1 161430Z 33003KT 18/15 A3002 RMK A01 T01830154  RH  083%=      5-min Rain = 0
KFR1 161431Z 34003KT 18/16 A3002 RMK A01 T01830156  RH  084%=      5-min Rain = 0
KFR1 161432Z 34003KT 18/16 A3002 RMK A01 T01840157  RH  084%=      5-min Rain = 0
KFR1 161433Z 33003KT 18/15 A3002 RMK A01 T01840154  RH  083%=      5-min Rain = 0
KFR1 161434Z 35003KT 18/16 A3002 RMK A01 T01830155  RH  084%=      5-min Rain = 0
KFR1 161435Z 34003KT 18/16 A3002 RMK A01 T01830157  RH  085%=      5-min Rain = 0
KFR1 161436Z 35003KT 18/16 A3002 RMK A01 T01830156  RH  084%=      5-min Rain = 0
KFR1 161437Z 34003KT 18/16 A3002 RMK A01 T01830155  RH  083%=      5-min Rain = 0
KFR1 161438Z 32003KT 18/15 A3002 RMK A01 T01830154  RH  083%=      5-min Rain = 0
KFR1 161439Z 32003KT 18/15 A3002 RMK A01 T01830154  RH  083%=      5-min Rain = 0
KFR1 161440Z 33002KT 18/15 A3002 RMK A01 T01830152  RH  082%=      5-min Rain = 0
KFR1 161441Z 33002KT 18/15 A3002 RMK A01 T01820154  RH  084%=      5-min Rain = 0
KFR1 161442Z 30003KT 18/15 A3003 RMK A01 T01820154  RH  084%=      5-min Rain = 0
KFR1 161443Z 30002KT 18/15 A3003 RMK A01 T01820154  RH  084%=      5-min Rain = 0
KFR1 161444Z 31002KT 18/16 A3003 RMK A01 T01830158  RH  085%=      5-min Rain = 0
KFR1 161445Z 33002KT 18/16 A3003 RMK A01 T01830155  RH  084%=      5-min Rain = 0
KFR1 161446Z 33003KT 18/16 A3003 RMK A01 T01840155  RH  083%=      5-min Rain = 0
KFR1 161447Z 33003KT 18/16 A3003 RMK A01 T01840155  RH  083%=      5-min Rain = 0
KFR1 161448Z 31002KT 18/16 A3003 RMK A01 T01840155  RH  083%=      5-min Rain = 0
KFR1 161449Z 33003KT 18/16 A3003 RMK A01 T01840156  RH  084%=      5-min Rain = 0
KFR1 161450Z 31002KT 19/16 A3003 RMK A01 T01850156  RH  084%=      5-min Rain = 0
KFR1 161451Z 31002KT 19/16 A3003 RMK A01 T01850158  RH  084%=      5-min Rain = 0
KFR1 161452Z 28002KT 19/16 A3003 RMK A01 T01860158  RH  084%=      5-min Rain = 0
KFR1 161453Z 30001KT 19/16 A3003 RMK A01 T01860159  RH  084%=      5-min Rain = 0
KFR1 161454Z 31002KT 19/16 A3003 RMK A01 T01870157  RH  083%=      5-min Rain = 0
KFR1 161455Z 30003KT 19/16 A3003 RMK A01 T01870155  RH  082%=      5-min Rain = 0
KFR1 161456Z 30003KT 19/15 A3003 RMK A01 T01870154  RH  081%=      5-min Rain = 0
KFR1 161457Z 31002KT 19/15 A3003 RMK A01 T01860153  RH  081%=      5-min Rain = 0
KFR1 161458Z 32002KT 19/15 A3003 RMK A01 T01850154  RH  082%=      5-min Rain = 0
KFR1 161459Z 31002KT 19/16 A3003 RMK A01 T01850156  RH  083%=      5-min Rain = 0
KFR1 161500Z 31001KT 19/16 A3003 RMK A01 T01850158  RH  084%=      5-min Rain = 0
KFR1 161501Z 29002KT 19/16 A3003 RMK A01 T01860156  RH  083%=      5-min Rain = 0
KFR1 161502Z 29002KT 19/16 A3003 RMK A01 T01860155  RH  082%=      5-min Rain = 0
KFR1 161503Z 30002KT 19/16 A3003 RMK A01 T01860156  RH  083%=      5-min Rain = 0
KFR1 161504Z 28001KT 19/16 A3003 RMK A01 T01860156  RH  082%=      5-min Rain = 0
KFR1 161505Z 28002KT 19/16 A3003 RMK A01 T01870158  RH  083%=      5-min Rain = 0
KFR1 161506Z 27002KT 19/16 A3003 RMK A01 T01880155  RH  081%=      5-min Rain = 0
KFR1 161507Z 27002KT 19/16 A3003 RMK A01 T01870155  RH  081%=      5-min Rain = 0
KFR1 161508Z 27002KT 19/16 A3003 RMK A01 T01880156  RH  082%=      5-min Rain = 0
KFR1 161509Z 29002KT 19/16 A3003 RMK A01 T01880156  RH  082%=      5-min Rain = 0
KFR1 161510Z 30001KT 19/16 A3003 RMK A01 T01880155  RH  081%=      5-min Rain = 0
KFR1 161511Z 28002KT 19/16 A3003 RMK A01 T01880156  RH  082%=      5-min Rain = 0
KFR1 161512Z 24002KT 19/16 A3003 RMK A01 T01890160  RH  083%=      5-min Rain = 0
KFR1 161513Z 25001KT 19/16 A3003 RMK A01 T01890159  RH  083%=      5-min Rain = 0
KFR1 161514Z 25002KT 19/16 A3003 RMK A01 T01900159  RH  083%=      5-min Rain = 0
KFR1 161515Z 23002KT 19/16 A3003 RMK A01 T01900159  RH  082%=      5-min Rain = 0
KFR1 161516Z 26003KT 19/16 A3003 RMK A01 T01910159  RH  082%=      5-min Rain = 0
KFR1 161517Z 27003KT 19/16 A3003 RMK A01 T01910156  RH  080%=      5-min Rain = 0
KFR1 161518Z 25002KT 19/15 A3003 RMK A01 T01900154  RH  080%=      5-min Rain = 0
KFR1 161519Z 25002KT 19/16 A3003 RMK A01 T01910157  RH  081%=      5-min Rain = 0
KFR1 161520Z 25002KT 19/16 A3003 RMK A01 T01900156  RH  080%=      5-min Rain = 0
KFR1 161521Z 27002KT 19/15 A3003 RMK A01 T01900154  RH  080%=      5-min Rain = 0
KFR1 161522Z 27002KT 19/16 A3002 RMK A01 T01900157  RH  081%=      5-min Rain = 0
KFR1 161523Z 28003KT 19/16 A3002 RMK A01 T01910157  RH  081%=      5-min Rain = 0
KFR1 161524Z 28002KT 19/15 A3002 RMK A01 T01910153  RH  079%=      5-min Rain = 0
KFR1 161525Z 31002KT 19/15 A3002 RMK A01 T01910152  RH  078%=      5-min Rain = 0
KFR1 161526Z 32002KT 19/16 A3002 RMK A01 T01910155  RH  079%=      5-min Rain = 0
KFR1 161527Z 31001KT 19/15 A3002 RMK A01 T01920153  RH  078%=      5-min Rain = 0
KFR1 161528Z 25001KT 19/15 A3002 RMK A01 T01920154  RH  079%=      5-min Rain = 0
KFR1 161529Z 27002KT 19/16 A3002 RMK A01 T01920156  RH  080%=      5-min Rain = 0
KFR1 161530Z 26002KT 19/15 A3002 RMK A01 T01920153  RH  078%=      5-min Rain = 0
KFR1 161531Z 24003KT 19/15 A3002 RMK A01 T01920154  RH  079%=      5-min Rain = 0
KFR1 161532Z 27003KT 19/15 A3002 RMK A01 T01920153  RH  078%=      5-min Rain = 0
KFR1 161533Z 29002KT 19/15 A3002 RMK A01 T01930152  RH  077%=      5-min Rain = 0
KFR1 161534Z 26003KT 19/15 A3002 RMK A01 T01930153  RH  078%=      5-min Rain = 0
KFR1 161535Z 25003KT 19/15 A3002 RMK A01 T01930154  RH  078%=      5-min Rain = 0
KFR1 161536Z 27002KT 19/16 A3002 RMK A01 T01920155  RH  079%=      5-min Rain = 0
KFR1 161537Z 28002KT 19/16 A3002 RMK A01 T01930156  RH  079%=      5-min Rain = 0
KFR1 161538Z 30002KT 20/16 A3002 RMK A01 T01950159  RH  080%=      5-min Rain = 0
KFR1 161539Z 30002KT 20/15 A3002 RMK A01 T01950154  RH  077%=      5-min Rain = 0
KFR1 161540Z 28001KT 20/15 A3002 RMK A01 T01950154  RH  077%=      5-min Rain = 0
KFR1 161541Z 27003KT 20/16 A3002 RMK A01 T01950156  RH  078%=      5-min Rain = 0
KFR1 161542Z 26001KT 20/15 A3002 RMK A01 T01950152  RH  076%=      5-min Rain = 0
KFR1 161543Z 24002KT 20/15 A3002 RMK A01 T01950154  RH  077%=      5-min Rain = 0
KFR1 161544Z 25002KT 20/16 A3002 RMK A01 T01950157  RH  078%=      5-min Rain = 0
KFR1 161545Z 25002KT 20/15 A3002 RMK A01 T01960153  RH  076%=      5-min Rain = 0
KFR1 161546Z 25003KT 20/15 A3002 RMK A01 T01960153  RH  076%=      5-min Rain = 0
KFR1 161547Z 26002KT 20/15 A3002 RMK A01 T01950154  RH  077%=      5-min Rain = 0
KFR1 161548Z 28002KT 20/16 A3002 RMK A01 T01950155  RH  078%=      5-min Rain = 0
KFR1 161549Z 28003KT 20/15 A3002 RMK A01 T01950153  RH  077%=      5-min Rain = 0
KFR1 161550Z 28002KT 20/15 A3002 RMK A01 T01950153  RH  077%=      5-min Rain = 0
KFR1 161551Z 25002KT 20/16 A3002 RMK A01 T01960157  RH  078%=      5-min Rain = 0
KFR1 161552Z 26003KT 20/15 A3002 RMK A01 T01960154  RH  077%=      5-min Rain = 0
KFR1 161553Z 25003KT 20/15 A3002 RMK A01 T01970154  RH  076%=      5-min Rain = 0
KFR1 161554Z 24002KT 20/16 A3002 RMK A01 T01960155  RH  077%=      5-min Rain = 0
KFR1 161555Z 25001KT 20/16 A3002 RMK A01 T01970157  RH  078%=      5-min Rain = 0
KFR1 161556Z 29002KT 20/15 A3002 RMK A01 T01980153  RH  075%=      5-min Rain = 0
KFR1 161557Z 28003KT 20/15 A3002 RMK A01 T01980154  RH  076%=      5-min Rain = 0
KFR1 161558Z 29003KT 20/15 A3002 RMK A01 T01980154  RH  076%=      5-min Rain = 0
KFR1 161559Z 29004KT 20/15 A3002 RMK A01 T01980153  RH  075%=      5-min Rain = 0
KFR1 161600Z 28004KT 20/15 A3002 RMK A01 T01980153  RH  075%=      5-min Rain = 0
KFR1 161601Z 27003KT 20/15 A3002 RMK A01 T01970154  RH  076%=      5-min Rain = 0
KFR1 161602Z 27003KT 20/15 A3002 RMK A01 T01970153  RH  075%=      5-min Rain = 0
KFR1 161603Z 26003KT 20/16 A3002 RMK A01 T01970155  RH  076%=      5-min Rain = 0
KFR1 161604Z 28004KT 20/16 A3002 RMK A01 T01980156  RH  077%=      5-min Rain = 0
KFR1 161605Z 29004KT 20/15 A3002 RMK A01 T01980153  RH  075%=      5-min Rain = 0
KFR1 161606Z 28004KT 20/15 A3002 RMK A01 T01990152  RH  075%=      5-min Rain = 0
KFR1 161607Z 28006KT 20/15 A3002 RMK A01 T01990152  RH  074%=      5-min Rain = 0
KFR1 161608Z 27006KT 20/15 A3002 RMK A01 T01990151  RH  074%=      5-min Rain = 0
KFR1 161609Z 28005KT 20/15 A3002 RMK A01 T01990151  RH  074%=      5-min Rain = 0
KFR1 161610Z 30004KT 20/15 A3002 RMK A01 T01980151  RH  074%=      5-min Rain = 0
KFR1 161611Z 31004KT 20/15 A3002 RMK A01 T01980153  RH  075%=      5-min Rain = 0
KFR1 161612Z 29003KT 20/16 A3002 RMK A01 T01980155  RH  076%=      5-min Rain = 0
KFR1 161613Z 29003KT 20/15 A3002 RMK A01 T01990153  RH  075%=      5-min Rain = 0
KFR1 161614Z 30002KT 20/15 A3002 RMK A01 T01990152  RH  075%=      5-min Rain = 0
KFR1 161615Z 29002KT 20/15 A3002 RMK A01 T01990154  RH  075%=      5-min Rain = 0
KFR1 161616Z 28003KT 20/16 A3002 RMK A01 T02000158  RH  076%=      5-min Rain = 0
KFR1 161617Z 29003KT 20/16 A3002 RMK A01 T02010156  RH  075%=      5-min Rain = 0
KFR1 161618Z 27003KT 20/16 A3002 RMK A01 T02020158  RH  076%=      5-min Rain = 0
KFR1 161619Z 28003KT 20/16 A3002 RMK A01 T02030156  RH  074%=      5-min Rain = 0
KFR1 161620Z 28004KT 20/16 A3002 RMK A01 T02030155  RH  074%=      5-min Rain = 0
KFR1 161621Z 30002KT 20/15 A3002 RMK A01 T02030154  RH  073%=      5-min Rain = 0
KFR1 161622Z 30003KT 20/16 A3002 RMK A01 T02030155  RH  074%=      5-min Rain = 0
KFR1 161623Z 29002KT 20/15 A3002 RMK A01 T02020153  RH  073%=      5-min Rain = 0
KFR1 161624Z 30001KT 20/16 A3002 RMK A01 T02020157  RH  075%=      5-min Rain = 0
KFR1 161625Z 27002KT 20/16 A3002 RMK A01 T02020156  RH  074%=      5-min Rain = 0
KFR1 161626Z 27002KT 20/16 A3002 RMK A01 T02030155  RH  074%=      5-min Rain = 0
KFR1 161627Z 26003KT 20/16 A3002 RMK A01 T02030155  RH  074%=      5-min Rain = 0
KFR1 161628Z 27004KT 20/15 A3002 RMK A01 T02030153  RH  073%=      5-min Rain = 0
KFR1 161629Z 28002KT 20/15 A3002 RMK A01 T02010152  RH  073%=      5-min Rain = 0
KFR1 161630Z 24001KT 20/15 A3002 RMK A01 T02010154  RH  074%=      5-min Rain = 0
KFR1 161631Z 24002KT 20/15 A3002 RMK A01 T02010153  RH  074%=      5-min Rain = 0
KFR1 161632Z 25002KT 20/16 A3002 RMK A01 T02010156  RH  075%=      5-min Rain = 0
KFR1 161633Z 29002KT 20/16 A3002 RMK A01 T02030160  RH  076%=      5-min Rain = 0
KFR1 161634Z 32002KT 20/16 A3002 RMK A01 T02040159  RH  075%=      5-min Rain = 0
KFR1 161635Z 30001KT 21/16 A3002 RMK A01 T02050162  RH  076%=      5-min Rain = 0
KFR1 161636Z 26002KT 21/16 A3002 RMK A01 T02060159  RH  074%=      5-min Rain = 0
KFR1 161637Z 27002KT 21/16 A3002 RMK A01 T02070160  RH  075%=      5-min Rain = 0
KFR1 161638Z 28003KT 21/16 A3002 RMK A01 T02070158  RH  074%=      5-min Rain = 0
KFR1 161639Z 32002KT 21/16 A3002 RMK A01 T02080159  RH  074%=      5-min Rain = 0
KFR1 161640Z 34003KT 21/16 A3002 RMK A01 T02080157  RH  072%=      5-min Rain = 0
KFR1 161641Z 34002KT 21/15 A3002 RMK A01 T02080153  RH  070%=      5-min Rain = 0
KFR1 161642Z 33003KT 21/16 A3002 RMK A01 T02070155  RH  072%=      5-min Rain = 0
KFR1 161643Z 34002KT 21/16 A3002 RMK A01 T02070156  RH  073%=      5-min Rain = 0
KFR1 161644Z 33002KT 21/16 A3002 RMK A01 T02080159  RH  074%=      5-min Rain = 0
KFR1 161645Z 34003KT 21/16 A3002 RMK A01 T02080156  RH  072%=      5-min Rain = 0
KFR1 161646Z 31001KT 21/15 A3002 RMK A01 T02080151  RH  070%=      5-min Rain = 0
KFR1 161647Z 36001KT 21/15 A3002 RMK A01 T02070154  RH  072%=      5-min Rain = 0
KFR1 161648Z 35003KT 21/15 A3002 RMK A01 T02070154  RH  071%=      5-min Rain = 0
KFR1 161649Z 01001KT 21/15 A3002 RMK A01 T02070152  RH  071%=      5-min Rain = 0
KFR1 161650Z 34001KT 21/16 A3002 RMK A01 T02070157  RH  073%=      5-min Rain = 0
KFR1 161651Z 32001KT 21/16 A3002 RMK A01 T02070155  RH  072%=      5-min Rain = 0
KFR1 161652Z 32003KT 21/16 A3002 RMK A01 T02080156  RH  072%=      5-min Rain = 0
KFR1 161653Z 33004KT 21/15 A3002 RMK A01 T02090154  RH  071%=      5-min Rain = 0
KFR1 161654Z 30005KT 21/15 A3002 RMK A01 T02090154  RH  071%=      5-min Rain = 0
KFR1 161655Z 32003KT 21/15 A3002 RMK A01 T02080151  RH  070%=      5-min Rain = 0
KFR1 161656Z 30003KT 21/15 A3002 RMK A01 T02080154  RH  071%=      5-min Rain = 0
KFR1 161657Z 30004KT 21/16 A3002 RMK A01 T02080155  RH  072%=      5-min Rain = 0
KFR1 161658Z 29003KT 21/16 A3002 RMK A01 T02090157  RH  072%=      5-min Rain = 0
KFR1 161659Z 30004KT 21/16 A3002 RMK A01 T02090155  RH  071%=      5-min Rain = 0
KFR1 161700Z 32003KT 21/15 A3002 RMK A01 T02100154  RH  070%=      5-min Rain = 0
KFR1 161701Z 33004KT 21/16 A3002 RMK A01 T02090156  RH  072%=      5-min Rain = 0
KFR1 161702Z 34004KT 21/15 A3002 RMK A01 T02090151  RH  069%=      5-min Rain = 0
KFR1 161703Z 32002KT 21/15 A3001 RMK A01 T02080153  RH  071%=      5-min Rain = 0
KFR1 161704Z 29002KT 21/16 A3001 RMK A01 T02080155  RH  072%=      5-min Rain = 0
KFR1 161705Z 30003KT 21/15 A3001 RMK A01 T02080152  RH  070%=      5-min Rain = 0
KFR1 161706Z 28003KT 21/15 A3001 RMK A01 T02080153  RH  071%=      5-min Rain = 0
KFR1 161707Z 28002KT 21/15 A3001 RMK A01 T02080154  RH  071%=      5-min Rain = 0
KFR1 161708Z 28002KT 21/16 A3001 RMK A01 T02090157  RH  072%=      5-min Rain = 0
KFR1 161709Z 27002KT 21/16 A3001 RMK A01 T02100157  RH  071%=      5-min Rain = 0
KFR1 161710Z 27003KT 21/16 A3001 RMK A01 T02110156  RH  071%=      5-min Rain = 0
KFR1 161711Z 29002KT 21/16 A3001 RMK A01 T02110155  RH  070%=      5-min Rain = 0
KFR1 161712Z 31001KT 21/16 A3001 RMK A01 T02120159  RH  072%=      5-min Rain = 0
KFR1 161713Z 32002KT 21/16 A3001 RMK A01 T02130158  RH  071%=      5-min Rain = 0
KFR1 161714Z 31003KT 21/16 A3001 RMK A01 T02120157  RH  070%=      5-min Rain = 0
KFR1 161715Z 29003KT 21/15 A3001 RMK A01 T02120153  RH  069%=      5-min Rain = 0
KFR1 161716Z 30003KT 21/16 A3001 RMK A01 T02120156  RH  070%=      5-min Rain = 0
KFR1 161717Z 28003KT 21/16 A3001 RMK A01 T02120159  RH  072%=      5-min Rain = 0
KFR1 161718Z 29003KT 21/16 A3001 RMK A01 T02120155  RH  070%=      5-min Rain = 0
KFR1 161719Z 28004KT 21/16 A3001 RMK A01 T02120157  RH  070%=      5-min Rain = 0
KFR1 161720Z 26003KT 21/16 A3001 RMK A01 T02120155  RH  070%=      5-min Rain = 0
KFR1 161721Z 26002KT 21/16 A3001 RMK A01 T02120156  RH  070%=      5-min Rain = 0
KFR1 161722Z 28002KT 21/16 A3001 RMK A01 T02120156  RH  071%=      5-min Rain = 0
KFR1 161723Z 30002KT 21/15 A3001 RMK A01 T02120153  RH  069%=      5-min Rain = 0
KFR1 161724Z 30002KT 21/15 A3001 RMK A01 T02120154  RH  069%=      5-min Rain = 0
KFR1 161725Z 32002KT 21/15 A3001 RMK A01 T02110152  RH  069%=      5-min Rain = 0
KFR1 161726Z 30002KT 21/15 A3001 RMK A01 T02110151  RH  069%=      5-min Rain = 0
KFR1 161727Z 26001KT 21/15 A3001 RMK A01 T02110152  RH  069%=      5-min Rain = 0
KFR1 161728Z 26001KT 21/16 A3001 RMK A01 T02110155  RH  070%=      5-min Rain = 0
KFR1 161729Z 24001KT 21/16 A3001 RMK A01 T02120155  RH  070%=      5-min Rain = 0
KFR1 161730Z 26001KT 21/16 A3001 RMK A01 T02120156  RH  070%=      5-min Rain = 0
KFR1 161731Z 02001KT 21/15 A3001 RMK A01 T02130154  RH  069%=      5-min Rain = 0
KFR1 161732Z 05002KT 21/16 A3001 RMK A01 T02130156  RH  070%=      5-min Rain = 0
KFR1 161733Z 00003KT 21/16 A3001 RMK A01 T02140160  RH  071%=      5-min Rain = 0
KFR1 161734Z 02003KT 22/16 A3001 RMK A01 T02150158  RH  070%=      5-min Rain = 0
KFR1 161735Z 01002KT 22/16 A3001 RMK A01 T02150158  RH  070%=      5-min Rain = 0
KFR1 161736Z 03003KT 22/16 A3001 RMK A01 T02150158  RH  070%=      5-min Rain = 0
KFR1 161737Z 02004KT 22/16 A3001 RMK A01 T02150157  RH  070%=      5-min Rain = 0
KFR1 161738Z 02005KT 21/16 A3001 RMK A01 T02140156  RH  069%=      5-min Rain = 0
KFR1 161739Z 03003KT 21/16 A3001 RMK A01 T02140158  RH  070%=      5-min Rain = 0
KFR1 161740Z 03002KT 21/16 A3001 RMK A01 T02140155  RH  069%=      5-min Rain = 0
KFR1 161741Z 04003KT 21/16 A3001 RMK A01 T02130155  RH  069%=      5-min Rain = 0
KFR1 161742Z 01003KT 21/15 A3001 RMK A01 T02130154  RH  069%=      5-min Rain = 0
KFR1 161743Z 35001KT 21/16 A3001 RMK A01 T02130158  RH  071%=      5-min Rain = 0
KFR1 161744Z 04003KT 21/15 A3001 RMK A01 T02130154  RH  069%=      5-min Rain = 0
KFR1 161745Z 04002KT 21/16 A3001 RMK A01 T02130159  RH  071%=      5-min Rain = 0
KFR1 161746Z 03003KT 21/16 A3001 RMK A01 T02140155  RH  069%=      5-min Rain = 0
KFR1 161747Z 36003KT 21/15 A3001 RMK A01 T02130153  RH  069%=      5-min Rain = 0
KFR1 161748Z 35002KT 21/15 A3001 RMK A01 T02130154  RH  069%=      5-min Rain = 0
KFR1 161749Z 02002KT 21/15 A3001 RMK A01 T02130154  RH  069%=      5-min Rain = 0
KFR1 161750Z 01002KT 21/16 A3001 RMK A01 T02140156  RH  070%=      5-min Rain = 0
KFR1 161751Z 03002KT 21/16 A3001 RMK A01 T02140157  RH  070%=      5-min Rain = 0
KFR1 161752Z 03002KT 22/16 A3001 RMK A01 T02150156  RH  069%=      5-min Rain = 0
KFR1 161753Z 04002KT 22/16 A30 RMK A01 T02160158  RH  070%=      5-min Rain = 0
KFR1 161754Z 03003KT 22/16 A30 RMK A01 T02170162  RH  071%=      5-min Rain = 0
KFR1 161755Z 02004KT 22/16 A3001 RMK A01 T02180156  RH  068%=      5-min Rain = 0
KFR1 161756Z 00004KT 22/16 A3001 RMK A01 T02170157  RH  069%=      5-min Rain = 0
KFR1 161757Z 35004KT 22/16 A30 RMK A01 T02170156  RH  068%=      5-min Rain = 0
KFR1 161758Z 35003KT 22/16 A30 RMK A01 T02160155  RH  068%=      5-min Rain = 0
KFR1 161759Z 34001KT 22/16 A30 RMK A01 T02160157  RH  069%=      5-min Rain = 0
KFR1 161800Z 00004KT 22/16 A30 RMK A01 T02160155  RH  068%=      5-min Rain = 0
KFR1 161801Z 36003KT 22/15 A30 RMK A01 T02150153  RH  068%=      5-min Rain = 0
KFR1 161802Z 34003KT 21/15 A30 RMK A01 T02140154  RH  069%=      5-min Rain = 0
KFR1 161803Z 36004KT 21/16 A30 RMK A01 T02140156  RH  070%=      5-min Rain = 0
KFR1 161804Z 00003KT 21/16 A30 RMK A01 T02140157  RH  070%=      5-min Rain = 0
KFR1 161805Z 35003KT 22/16 A30 RMK A01 T02150161  RH  071%=      5-min Rain = 0
KFR1 161806Z 01003KT 22/16 A30 RMK A01 T02160158  RH  070%=      5-min Rain = 0
KFR1 161807Z 02004KT 22/16 A30 RMK A01 T02160157  RH  069%=      5-min Rain = 0
KFR1 161808Z 02003KT 22/16 A30 RMK A01 T02160157  RH  069%=      5-min Rain = 0
KFR1 161809Z 00003KT 22/16 A30 RMK A01 T02150156  RH  069%=      5-min Rain = 0
KFR1 161810Z 04003KT 22/16 A30 RMK A01 T02150160  RH  071%=      5-min Rain = 0
KFR1 161811Z 02003KT 22/16 A30 RMK A01 T02160159  RH  070%=      5-min Rain = 0
KFR1 161812Z 03002KT 22/16 A30 RMK A01 T02160156  RH  069%=      5-min Rain = 0
KFR1 161813Z 05001KT 22/16 A30 RMK A01 T02160155  RH  068%=      5-min Rain = 0
KFR1 161814Z 03003KT 22/16 A30 RMK A01 T02160160  RH  070%=      5-min Rain = 0
KFR1 161815Z 01004KT 22/16 A30 RMK A01 T02170158  RH  069%=      5-min Rain = 0
KFR1 161816Z 03003KT 22/16 A30 RMK A01 T02160156  RH  068%=      5-min Rain = 0
KFR1 161817Z 03003KT 22/16 A30 RMK A01 T02160159  RH  070%=      5-min Rain = 0
KFR1 161818Z 02003KT 22/16 A30 RMK A01 T02160159  RH  070%=      5-min Rain = 0
KFR1 161819Z 03002KT 22/15 A30 RMK A01 T02170154  RH  068%=      5-min Rain = 0
KFR1 161820Z 01004KT 22/16 A30 RMK A01 T02160156  RH  068%=      5-min Rain = 0
KFR1 161821Z 02004KT 22/16 A30 RMK A01 T02150157  RH  069%=      5-min Rain = 0
KFR1 161822Z 01004KT 22/16 A30 RMK A01 T02160158  RH  070%=      5-min Rain = 0
KFR1 161823Z 01004KT 22/16 A30 RMK A01 T02160158  RH  070%=      5-min Rain = 0
KFR1 161824Z 04003KT 22/17 A30 RMK A01 T02170165  RH  072%=      5-min Rain = 0
KFR1 161825Z 01003KT 22/16 A30 RMK A01 T02200163  RH  070%=      5-min Rain = 0
KFR1 161826Z 00003KT 22/16 A30 RMK A01 T02210162  RH  069%=      5-min Rain = 0
KFR1 161827Z 04004KT 22/16 A30 RMK A01 T02210162  RH  069%=      5-min Rain = 0
KFR1 161828Z 02004KT 22/17 A30 RMK A01 T02220167  RH  071%=      5-min Rain = 0
KFR1 161829Z 03004KT 22/16 A30 RMK A01 T02220164  RH  069%=      5-min Rain = 0
KFR1 161830Z 03004KT 22/16 A30 RMK A01 T02220159  RH  067%=      5-min Rain = 0
KFR1 161831Z 03004KT 22/16 A30 RMK A01 T02200157  RH  067%=      5-min Rain = 0
KFR1 161832Z 02004KT 22/16 A30 RMK A01 T02190158  RH  068%=      5-min Rain = 0
KFR1 161833Z 02004KT 22/16 A30 RMK A01 T02180161  RH  070%=      5-min Rain = 0
KFR1 161834Z 00004KT 22/16 A30 RMK A01 T02190157  RH  068%=      5-min Rain = 0
KFR1 161835Z 02004KT 22/16 A30 RMK A01 T02190161  RH  069%=      5-min Rain = 0
KFR1 161836Z 04002KT 22/16 A30 RMK A01 T02190159  RH  069%=      5-min Rain = 0
KFR1 161837Z 01004KT 22/16 A30 RMK A01 T02190162  RH  070%=      5-min Rain = 0
KFR1 161838Z 01002KT 22/16 A30 RMK A01 T02200160  RH  069%=      5-min Rain = 0
KFR1 161839Z 01004KT 22/16 A30 RMK A01 T02190162  RH  070%=      5-min Rain = 0
KFR1 161840Z 35002KT 22/16 A30 RMK A01 T02200159  RH  068%=      5-min Rain = 0
KFR1 161841Z 01001KT 22/16 A30 RMK A01 T02200160  RH  069%=      5-min Rain = 0
KFR1 161842Z 35003KT 22/16 A30 RMK A01 T02200163  RH  070%=      5-min Rain = 0
KFR1 161843Z 03004KT 22/16 A30 RMK A01 T02210164  RH  070%=      5-min Rain = 0
KFR1 161844Z 04004KT 22/16 A30 RMK A01 T02220163  RH  069%=      5-min Rain = 0
KFR1 161845Z 04003KT 22/16 A30 RMK A01 T02220164  RH  070%=      5-min Rain = 0
KFR1 161846Z 05003KT 22/16 A30 RMK A01 T02220164  RH  070%=      5-min Rain = 0
KFR1 161847Z 03004KT 22/16 A30 RMK A01 T02230164  RH  069%=      5-min Rain = 0
KFR1 161848Z 02003KT 22/17 A30 RMK A01 T02230165  RH  069%=      5-min Rain = 0
KFR1 161849Z 04003KT 22/16 A30 RMK A01 T02230164  RH  069%=      5-min Rain = 0
KFR1 161850Z 05004KT 22/16 A30 RMK A01 T02230164  RH  069%=      5-min Rain = 0
KFR1 161851Z 03003KT 22/16 A30 RMK A01 T02220161  RH  068%=      5-min Rain = 0
KFR1 161852Z 04003KT 22/16 A30 RMK A01 T02210162  RH  069%=      5-min Rain = 0
KFR1 161853Z 06004KT 22/16 A30 RMK A01 T02210163  RH  070%=      5-min Rain = 0
KFR1 161854Z 06004KT 22/16 A30 RMK A01 T02200160  RH  068%=      5-min Rain = 0
KFR1 161855Z 03004KT 22/16 A30 RMK A01 T02200162  RH  070%=      5-min Rain = 0
KFR1 161856Z 04003KT 22/16 A30 RMK A01 T02200164  RH  071%=      5-min Rain = 0
KFR1 161857Z 04003KT 22/17 A30 RMK A01 T02220168  RH  071%=      5-min Rain = 0
KFR1 161858Z 04005KT 22/17 A2999 RMK A01 T02230165  RH  069%=      5-min Rain = 0
KFR1 161859Z 04005KT 22/16 A2999 RMK A01 T02230161  RH  068%=      5-min Rain = 0
KFR1 161900Z 04004KT 22/16 A2999 RMK A01 T02220160  RH  068%=      5-min Rain = 0
KFR1 161901Z 02003KT 22/16 A2999 RMK A01 T02210164  RH  070%=      5-min Rain = 0
KFR1 161902Z 02003KT 22/16 A2999 RMK A01 T02210161  RH  069%=      5-min Rain = 0
KFR1 161903Z 02003KT 22/17 A2999 RMK A01 T02220165  RH  070%=      5-min Rain = 0
KFR1 161904Z 03002KT 22/16 A2999 RMK A01 T02220164  RH  070%=      5-min Rain = 0
KFR1 161905Z 04003KT 22/17 A2999 RMK A01 T02230166  RH  070%=      5-min Rain = 0
KFR1 161906Z 05005KT 22/16 A2999 RMK A01 T02240162  RH  068%=      5-min Rain = 0
KFR1 161907Z 06004KT 22/16 A2999 RMK A01 T02220160  RH  068%=      5-min Rain = 0
KFR1 161908Z 06004KT 22/16 A2999 RMK A01 T02210162  RH  069%=      5-min Rain = 0
KFR1 161909Z 06005KT 22/16 A2999 RMK A01 T02210160  RH  068%=      5-min Rain = 0
KFR1 161910Z 06004KT 22/16 A2999 RMK A01 T02210160  RH  068%=      5-min Rain = 0
KFR1 161911Z 05004KT 22/16 A2999 RMK A01 T02210161  RH  069%=      5-min Rain = 0
KFR1 161912Z 06004KT 22/16 A2999 RMK A01 T02210159  RH  068%=      5-min Rain = 0
KFR1 161913Z 06004KT 22/16 A2999 RMK A01 T02200159  RH  068%=      5-min Rain = 0
KFR1 161914Z 05004KT 22/16 A2999 RMK A01 T02200160  RH  069%=      5-min Rain = 0
KFR1 161915Z 02003KT 22/17 A2999 RMK A01 T02220166  RH  070%=      5-min Rain = 0
KFR1 161916Z 35002KT 22/17 A2999 RMK A01 T02230165  RH  070%=      5-min Rain = 0
KFR1 161917Z 04003KT 23/17 A2999 RMK A01 T02250165  RH  069%=      5-min Rain = 0
KFR1 161918Z 03003KT 23/16 A2999 RMK A01 T02250164  RH  068%=      5-min Rain = 0
KFR1 161919Z 35002KT 23/16 A2999 RMK A01 T02260162  RH  067%=      5-min Rain = 0
KFR1 161920Z 03002KT 23/16 A2999 RMK A01 T02260161  RH  067%=      5-min Rain = 0
KFR1 161921Z 06004KT 23/16 A2999 RMK A01 T02250164  RH  068%=      5-min Rain = 0
KFR1 161922Z 03004KT 23/16 A2998 RMK A01 T02260163  RH  067%=      5-min Rain = 0
KFR1 161923Z 03004KT 23/16 A2998 RMK A01 T02260162  RH  067%=      5-min Rain = 0
KFR1 161924Z 01002KT 23/17 A2998 RMK A01 T02280169  RH  070%=      5-min Rain = 0
KFR1 161925Z 34003KT 23/17 A2998 RMK A01 T02300167  RH  068%=      5-min Rain = 0
KFR1 161926Z 36004KT 23/17 A2998 RMK A01 T02320171  RH  068%=      5-min Rain = 0
KFR1 161927Z 35003KT 23/16 A2998 RMK A01 T02340161  RH  063%=      5-min Rain = 0
KFR1 161928Z 34003KT 23/17 A2998 RMK A01 T02320165  RH  066%=      5-min Rain = 0
KFR1 161929Z 02003KT 23/17 A2998 RMK A01 T02340170  RH  067%=      5-min Rain = 0
KFR1 161930Z 01003KT 24/17 A2998 RMK A01 T02350165  RH  065%=      5-min Rain = 0
KFR1 161931Z 01002KT 23/17 A2998 RMK A01 T02340165  RH  065%=      5-min Rain = 0
KFR1 161932Z 34004KT 24/17 A2998 RMK A01 T02350172  RH  068%=      5-min Rain = 0
KFR1 161933Z 35004KT 24/17 A2998 RMK A01 T02380170  RH  066%=      5-min Rain = 0
KFR1 161934Z 35006KT 24/17 A2998 RMK A01 T02380170  RH  065%=      5-min Rain = 0
KFR1 161935Z 34004KT 24/17 A2998 RMK A01 T02370165  RH  064%=      5-min Rain = 0
KFR1 161936Z 36004KT 24/16 A2998 RMK A01 T02350163  RH  064%=      5-min Rain = 0
KFR1 161937Z 00005KT 23/16 A2998 RMK A01 T02340164  RH  065%=      5-min Rain = 0
KFR1 161938Z 01005KT 23/17 A2998 RMK A01 T02340167  RH  066%=      5-min Rain = 0
KFR1 161939Z 36004KT 23/17 A2998 RMK A01 T02340166  RH  066%=      5-min Rain = 0
KFR1 161940Z 36004KT 23/17 A2998 RMK A01 T02340165  RH  065%=      5-min Rain = 0
KFR1 161941Z 02004KT 24/17 A2998 RMK A01 T02360174  RH  068%=      5-min Rain = 0
KFR1 161942Z 02004KT 24/17 A2998 RMK A01 T02390168  RH  064%=      5-min Rain = 0
KFR1 161943Z 00004KT 24/17 A2998 RMK A01 T02390165  RH  064%=      5-min Rain = 0
KFR1 161944Z 03004KT 24/16 A2998 RMK A01 T02360163  RH  064%=      5-min Rain = 0
KFR1 161945Z 03005KT 24/17 A2998 RMK A01 T02350165  RH  065%=      5-min Rain = 0
KFR1 161946Z 02004KT 24/16 A2998 RMK A01 T02350162  RH  064%=      5-min Rain = 0
KFR1 161947Z 02005KT 23/16 A2998 RMK A01 T02340164  RH  064%=      5-min Rain = 0
KFR1 161948Z 01004KT 24/16 A2998 RMK A01 T02350164  RH  064%=      5-min Rain = 0
KFR1 161949Z 01004KT 24/16 A2998 RMK A01 T02360162  RH  063%=      5-min Rain = 0
KFR1 161950Z 00004KT 24/16 A2998 RMK A01 T02350162  RH  064%=      5-min Rain = 0
KFR1 161951Z 36003KT 24/16 A2998 RMK A01 T02350160  RH  063%=      5-min Rain = 0
KFR1 161952Z 36001KT 24/16 A2998 RMK A01 T02350156  RH  061%=      5-min Rain = 0
KFR1 161953Z 01002KT 24/17 A2998 RMK A01 T02350167  RH  066%=      5-min Rain = 0
KFR1 161954Z 36003KT 24/17 A2998 RMK A01 T02380166  RH  064%=      5-min Rain = 0
KFR1 161955Z 35006KT 24/17 A2998 RMK A01 T02400169  RH  065%=      5-min Rain = 0
KFR1 161956Z 35005KT 24/16 A2998 RMK A01 T02400164  RH  063%=      5-min Rain = 0
KFR1 161957Z 01006KT 24/17 A2998 RMK A01 T02380166  RH  064%=      5-min Rain = 0
KFR1 161958Z 36005KT 24/17 A2998 RMK A01 T02390168  RH  065%=      5-min Rain = 0
KFR1 161959Z 35004KT 24/17 A2998 RMK A01 T02390167  RH  064%=      5-min Rain = 0
KFR1 162000Z 01005KT 24/16 A2998 RMK A01 T02380164  RH  063%=      5-min Rain = 0
KFR1 162001Z 01005KT 24/17 A2998 RMK A01 T02380166  RH  064%=      5-min Rain = 0
KFR1 162002Z 35003KT 24/16 A2998 RMK A01 T02380163  RH  063%=      5-min Rain = 0
KFR1 162003Z 31002KT 24/17 A2998 RMK A01 T02370170  RH  066%=      5-min Rain = 0
KFR1 162004Z 33003KT 24/17 A2998 RMK A01 T02400172  RH  065%=      5-min Rain = 0
KFR1 162005Z 34002KT 24/17 A2998 RMK A01 T02420170  RH  064%=      5-min Rain = 0
KFR1 162006Z 35004KT 24/17 A2998 RMK A01 T02440173  RH  065%=      5-min Rain = 0
KFR1 162007Z 02004KT 25/17 A2998 RMK A01 T02450173  RH  064%=      5-min Rain = 0
KFR1 162008Z 01004KT 25/17 A2998 RMK A01 T02450169  RH  063%=      5-min Rain = 0
KFR1 162009Z 00003KT 24/17 A2998 RMK A01 T02420165  RH  062%=      5-min Rain = 0
KFR1 162010Z 02002KT 24/17 A2998 RMK A01 T02390165  RH  063%=      5-min Rain = 0
KFR1 162011Z 01004KT 24/17 A2998 RMK A01 T02380165  RH  064%=      5-min Rain = 0
KFR1 162012Z 01002KT 24/17 A2998 RMK A01 T02370165  RH  064%=      5-min Rain = 0
KFR1 162013Z 32003KT 24/17 A2998 RMK A01 T02370166  RH  064%=      5-min Rain = 0
KFR1 162014Z 35003KT 24/17 A2998 RMK A01 T02370168  RH  065%=      5-min Rain = 0
KFR1 162015Z 02002KT 24/17 A2998 RMK A01 T02390165  RH  063%=      5-min Rain = 0
KFR1 162016Z 34001KT 24/17 A2998 RMK A01 T02390165  RH  063%=      5-min Rain = 0
KFR1 162017Z 34001KT 24/17 A2998 RMK A01 T02400171  RH  066%=      5-min Rain = 0
KFR1 162018Z 01004KT 24/17 A2998 RMK A01 T02430168  RH  063%=      5-min Rain = 0
KFR1 162019Z 01004KT 24/17 A2998 RMK A01 T02420169  RH  064%=      5-min Rain = 0
KFR1 162020Z 02003KT 24/17 A2998 RMK A01 T02430173  RH  065%=      5-min Rain = 0
KFR1 162021Z 05003KT 25/18 A2998 RMK A01 T02450175  RH  065%=      5-min Rain = 0
KFR1 162022Z 01003KT 25/17 A2998 RMK A01 T02460173  RH  064%=      5-min Rain = 0
KFR1 162023Z 03003KT 25/18 A2998 RMK A01 T02470178  RH  065%=      5-min Rain = 0
KFR1 162024Z 06004KT 25/17 A2998 RMK A01 T02490174  RH  063%=      5-min Rain = 0
KFR1 162025Z 06002KT 25/17 A2998 RMK A01 T02470170  RH  062%=      5-min Rain = 0
KFR1 162026Z 08003KT 25/18 A2998 RMK A01 T02470175  RH  064%=      5-min Rain = 0
KFR1 162027Z 07004KT 25/17 A2998 RMK A01 T02480171  RH  062%=      5-min Rain = 0
KFR1 162028Z 06004KT 25/17 A2998 RMK A01 T02470172  RH  063%=      5-min Rain = 0
KFR1 162029Z 06003KT 25/17 A2998 RMK A01 T02450168  RH  062%=      5-min Rain = 0
KFR1 162030Z 04004KT 24/17 A2998 RMK A01 T02430170  RH  064%=      5-min Rain = 0
KFR1 162031Z 01002KT 24/17 A2998 RMK A01 T02430173  RH  065%=      5-min Rain = 0
KFR1 162032Z 31001KT 24/17 A2998 RMK A01 T02440173  RH  065%=      5-min Rain = 0
KFR1 162033Z 31003KT 25/17 A2998 RMK A01 T02450172  RH  064%=      5-min Rain = 0
KFR1 162034Z 34003KT 25/18 A2998 RMK A01 T02470175  RH  064%=      5-min Rain = 0
KFR1 162035Z 34004KT 25/17 A2998 RMK A01 T02460173  RH  063%=      5-min Rain = 0
KFR1 162036Z 36005KT 25/17 A2998 RMK A01 T02450173  RH  064%=      5-min Rain = 0
KFR1 162037Z 00003KT 24/17 A2998 RMK A01 T02430168  RH  063%=      5-min Rain = 0
KFR1 162038Z 35003KT 24/17 A2998 RMK A01 T02420171  RH  064%=      5-min Rain = 0
KFR1 162039Z 35004KT 24/17 A2998 RMK A01 T02430174  RH  065%=      5-min Rain = 0
KFR1 162040Z 35003KT 25/17 A2998 RMK A01 T02450171  RH  063%=      5-min Rain = 0
KFR1 162041Z 35004KT 25/17 A2998 RMK A01 T02450173  RH  064%=      5-min Rain = 0
KFR1 162042Z 00003KT 25/18 A2998 RMK A01 T02470180  RH  066%=      5-min Rain = 0
KFR1 162043Z 01004KT 25/17 A2997 RMK A01 T02490173  RH  062%=      5-min Rain = 0
KFR1 162044Z 36005KT 25/17 A2997 RMK A01 T02480168  RH  061%=      5-min Rain = 0
KFR1 162045Z 01004KT 25/17 A2997 RMK A01 T02450169  RH  062%=      5-min Rain = 0
KFR1 162046Z 01003KT 25/17 A2997 RMK A01 T02450171  RH  063%=      5-min Rain = 0
KFR1 162047Z 35004KT 25/18 A2997 RMK A01 T02470175  RH  064%=      5-min Rain = 0
KFR1 162048Z 00003KT 25/17 A2997 RMK A01 T02470171  RH  062%=      5-min Rain = 0
KFR1 162049Z 00004KT 25/17 A2997 RMK A01 T02470172  RH  063%=      5-min Rain = 0
KFR1 162050Z 00004KT 25/17 A2997 RMK A01 T02470171  RH  063%=      5-min Rain = 0
KFR1 162051Z 01003KT 25/17 A2997 RMK A01 T02460168  RH  062%=      5-min Rain = 0
KFR1 162052Z 01005KT 25/17 A2997 RMK A01 T02450170  RH  063%=      5-min Rain = 0
KFR1 162053Z 02005KT 25/18 A2997 RMK A01 T02460176  RH  065%=      5-min Rain = 0
KFR1 162054Z 01005KT 25/17 A2997 RMK A01 T02480172  RH  063%=      5-min Rain = 0
KFR1 162055Z 02006KT 25/17 A2997 RMK A01 T02470172  RH  063%=      5-min Rain = 0
KFR1 162056Z 01005KT 25/17 A2997 RMK A01 T02460174  RH  064%=      5-min Rain = 0
KFR1 162057Z 35004KT 25/17 A2997 RMK A01 T02450171  RH  063%=      5-min Rain = 0
KFR1 162058Z 36003KT 25/18 A2997 RMK A01 T02460176  RH  065%=      5-min Rain = 0
KFR1 162059Z 35005KT 25/18 A2997 RMK A01 T02480175  RH  064%=      5-min Rain = 0
KFR1 162100Z 35004KT 25/17 A2997 RMK A01 T02480174  RH  063%=      5-min Rain = 0
KFR1 162101Z 34005KT 25/17 A2997 RMK A01 T02470172  RH  063%=      5-min Rain = 0
KFR1 162102Z 35005KT 25/17 A2997 RMK A01 T02450170  RH  063%=      5-min Rain = 0
KFR1 162103Z 34004KT 24/17 A2997 RMK A01 T02440169  RH  063%=      5-min Rain = 0
KFR1 162104Z 36004KT 24/17 A2997 RMK A01 T02430170  RH  064%=      5-min Rain = 0
KFR1 162105Z 36003KT 24/17 A2997 RMK A01 T02440174  RH  065%=      5-min Rain = 0
KFR1 162106Z 35005KT 25/18 A2997 RMK A01 T02470176  RH  065%=      5-min Rain = 0
KFR1 162107Z 35005KT 25/17 A2997 RMK A01 T02490169  RH  061%=      5-min Rain = 0
KFR1 162108Z 35005KT 25/17 A2997 RMK A01 T02470168  RH  061%=      5-min Rain = 0
KFR1 162109Z 35005KT 25/17 A2997 RMK A01 T02470170  RH  062%=      5-min Rain = 0
KFR1 162110Z 35005KT 25/17 A2996 RMK A01 T02480169  RH  062%=      5-min Rain = 0
KFR1 162111Z 35006KT 25/17 A2996 RMK A01 T02480170  RH  062%=      5-min Rain = 0
KFR1 162112Z 36006KT 25/17 A2996 RMK A01 T02480166  RH  060%=      5-min Rain = 0
KFR1 162113Z 35004KT 25/17 A2996 RMK A01 T02490167  RH  060%=      5-min Rain = 0
KFR1 162114Z 36005KT 25/17 A2996 RMK A01 T02500167  RH  060%=      5-min Rain = 0
KFR1 162115Z 35005KT 25/17 A2996 RMK A01 T02500166  RH  060%=      5-min Rain = 0
KFR1 162116Z 35006KT 25/16 A2996 RMK A01 T02480163  RH  059%=      5-min Rain = 0
KFR1 162117Z 35004KT 25/16 A2996 RMK A01 T02470163  RH  060%=      5-min Rain = 0
KFR1 162118Z 35006KT 25/17 A2996 RMK A01 T02470167  RH  061%=      5-min Rain = 0
KFR1 162119Z 35006KT 25/17 A2996 RMK A01 T02480167  RH  061%=      5-min Rain = 0
KFR1 162120Z 35005KT 25/17 A2996 RMK A01 T02490169  RH  061%=      5-min Rain = 0
KFR1 162121Z 35005KT 25/17 A2996 RMK A01 T02500165  RH  059%=      5-min Rain = 0
KFR1 162122Z 36005KT 25/17 A2996 RMK A01 T02490165  RH  060%=      5-min Rain = 0
KFR1 162123Z 35004KT 25/17 A2996 RMK A01 T02470167  RH  061%=      5-min Rain = 0
KFR1 162124Z 36006KT 25/17 A2996 RMK A01 T02490171  RH  062%=      5-min Rain = 0
KFR1 162125Z 00005KT 25/17 A2996 RMK A01 T02510170  RH  061%=      5-min Rain = 0
KFR1 162126Z 36005KT 25/17 A2996 RMK A01 T02520174  RH  062%=      5-min Rain = 0
KFR1 162127Z 35005KT 25/17 A2996 RMK A01 T02530168  RH  059%=      5-min Rain = 0
KFR1 162128Z 00005KT 25/17 A2996 RMK A01 T02510166  RH  059%=      5-min Rain = 0
KFR1 162129Z 35005KT 25/17 A2996 RMK A01 T02500168  RH  060%=      5-min Rain = 0
KFR1 162130Z 00006KT 25/17 A2996 RMK A01 T02500173  RH  062%=      5-min Rain = 0
KFR1 162131Z 36005KT 25/17 A2996 RMK A01 T02510171  RH  061%=      5-min Rain = 0
KFR1 162132Z 00004KT 25/17 A2996 RMK A01 T02510174  RH  063%=      5-min Rain = 0
KFR1 162133Z 01005KT 25/17 A2996 RMK A01 T02510167  RH  059%=      5-min Rain = 0
KFR1 162134Z 01007KT 25/16 A2996 RMK A01 T02500162  RH  058%=      5-min Rain = 0
KFR1 162135Z 00005KT 25/16 A2996 RMK A01 T02490163  RH  059%=      5-min Rain = 0
KFR1 162136Z 36004KT 25/16 A2996 RMK A01 T02470164  RH  060%=      5-min Rain = 0
KFR1 162137Z 36005KT 25/17 A2996 RMK A01 T02470169  RH  062%=      5-min Rain = 0
KFR1 162138Z 00004KT 25/17 A2996 RMK A01 T02480173  RH  063%=      5-min Rain = 0
KFR1 162139Z 00003KT 25/18 A2996 RMK A01 T02510175  RH  063%=      5-min Rain = 0
KFR1 162140Z 02003KT 25/17 A2996 RMK A01 T02540170  RH  060%=      5-min Rain = 0
KFR1 162141Z 06003KT 25/16 A2996 RMK A01 T02540161  RH  056%=      5-min Rain = 0
KFR1 162142Z 01003KT 26/16 A2996 RMK A01 T02550155  RH  054%=      5-min Rain = 0
KFR1 162143Z 03004KT 25/16 A2996 RMK A01 T02540159  RH  056%=      5-min Rain = 0
KFR1 162144Z 02004KT 25/17 A2996 RMK A01 T02520165  RH  059%=      5-min Rain = 0
KFR1 162145Z 02003KT 25/16 A2996 RMK A01 T02520164  RH  058%=      5-min Rain = 0
KFR1 162146Z 02005KT 25/16 A2996 RMK A01 T02520162  RH  057%=      5-min Rain = 0
KFR1 162147Z 04004KT 25/16 A2996 RMK A01 T02520164  RH  058%=      5-min Rain = 0
KFR1 162148Z 05006KT 25/16 A2996 RMK A01 T02520162  RH  057%=      5-min Rain = 0
KFR1 162149Z 04000KT 25/16 A2996 RMK A01 T02530157  RH  055%=      5-min Rain = 0
KFR1 162150Z 02001KT 25/16 A2996 RMK A01 T02530159  RH  056%=      5-min Rain = 0
KFR1 162151Z 03003KT 25/17 A2996 RMK A01 T02530165  RH  058%=      5-min Rain = 0
KFR1 162152Z 05005KT 25/16 A2996 RMK A01 T02530162  RH  057%=      5-min Rain = 0
KFR1 162153Z 03004KT 25/16 A2996 RMK A01 T02520158  RH  056%=      5-min Rain = 0
KFR1 162154Z 05004KT 25/16 A2996 RMK A01 T02520164  RH  058%=      5-min Rain = 0
KFR1 162155Z 07006KT 25/15 A2996 RMK A01 T02540152  RH  053%=      5-min Rain = 0
KFR1 162156Z 08007KT 26/16 A2996 RMK A01 T02560157  RH  054%=      5-min Rain = 0
KFR1 162157Z 08006KT 26/15 A2996 RMK A01 T02570146  RH  050%=      5-min Rain = 0
KFR1 162158Z 07003KT 26/15 A2996 RMK A01 T02560145  RH  050%=      5-min Rain = 0
KFR1 162159Z 08004KT 26/15 A2995 RMK A01 T02550146  RH  051%=      5-min Rain = 0
KFR1 162200Z 10006KT 26/16 A2995 RMK A01 T02550158  RH  055%=      5-min Rain = 0
KFR1 162201Z 11006KT 26/16 A2995 RMK A01 T02570162  RH  056%=      5-min Rain = 0
KFR1 162202Z 09006KT 26/16 A2995 RMK A01 T02580159  RH  054%=      5-min Rain = 0
KFR1 162203Z 09005KT 26/16 A2995 RMK A01 T02570156  RH  054%=      5-min Rain = 0
KFR1 162204Z 06004KT 26/16 A2995 RMK A01 T02560157  RH  054%=      5-min Rain = 0
KFR1 162205Z 05003KT 25/15 A2995 RMK A01 T02540153  RH  053%=      5-min Rain = 0
KFR1 162206Z 10003KT 25/16 A2995 RMK A01 T02530159  RH  056%=      5-min Rain = 0
KFR1 162207Z 11005KT 25/15 A2995 RMK A01 T02540154  RH  054%=      5-min Rain = 0
KFR1 162208Z 09006KT 26/16 A2995 RMK A01 T02550157  RH  055%=      5-min Rain = 0
KFR1 162209Z 08007KT 26/15 A2995 RMK A01 T02560152  RH  052%=      5-min Rain = 0
KFR1 162210Z 09005KT 25/15 A2995 RMK A01 T02530151  RH  053%=      5-min Rain = 0
KFR1 162211Z 10005KT 25/16 A2995 RMK A01 T02530161  RH  057%=      5-min Rain = 0
KFR1 162212Z 10005KT 25/16 A2995 RMK A01 T02530156  RH  055%=      5-min Rain = 0
KFR1 162213Z 10005KT 25/15 A2995 RMK A01 T02530152  RH  054%=      5-min Rain = 0
KFR1 162214Z 11006KT 25/15 A2995 RMK A01 T02520154  RH  054%=      5-min Rain = 0
KFR1 162215Z 09006KT 25/16 A2995 RMK A01 T02540156  RH  055%=      5-min Rain = 0
KFR1 162216Z 09006KT 26/16 A2995 RMK A01 T02560158  RH  055%=      5-min Rain = 0
KFR1 162217Z 09006KT 26/15 A2995 RMK A01 T02560154  RH  053%=      5-min Rain = 0
KFR1 162218Z 08005KT 26/16 A2995 RMK A01 T02560156  RH  054%=      5-min Rain = 0
KFR1 162219Z 08006KT 26/16 A2995 RMK A01 T02570158  RH  055%=      5-min Rain = 0
KFR1 162220Z 08007KT 26/16 A2995 RMK A01 T02570157  RH  054%=      5-min Rain = 0
KFR1 162221Z 07006KT 26/16 A2995 RMK A01 T02570158  RH  054%=      5-min Rain = 0
KFR1 162222Z 07005KT 26/16 A2995 RMK A01 T02560156  RH  054%=      5-min Rain = 0
KFR1 162223Z 06006KT 26/15 A2995 RMK A01 T02560154  RH  053%=      5-min Rain = 0
KFR1 162224Z 07005KT 26/16 A2995 RMK A01 T02560155  RH  054%=      5-min Rain = 0
KFR1 162225Z 06005KT 26/15 A2995 RMK A01 T02550151  RH  053%=      5-min Rain = 0
KFR1 162226Z 06004KT 25/15 A2995 RMK A01 T02540150  RH  053%=      5-min Rain = 0
KFR1 162227Z 05004KT 25/16 A2995 RMK A01 T02530155  RH  054%=      5-min Rain = 0
KFR1 162228Z 03004KT 26/15 A2995 RMK A01 T02550154  RH  054%=      5-min Rain = 0
KFR1 162229Z 02004KT 26/16 A2995 RMK A01 T02550156  RH  054%=      5-min Rain = 0
KFR1 162230Z 35003KT 26/16 A2995 RMK A01 T02550155  RH  054%=      5-min Rain = 0
KFR1 162231Z 33004KT 26/16 A2995 RMK A01 T02570162  RH  056%=      5-min Rain = 0
KFR1 162232Z 34005KT 26/16 A2995 RMK A01 T02570160  RH  055%=      5-min Rain = 0
KFR1 162233Z 00004KT 25/16 A2995 RMK A01 T02540164  RH  057%=      5-min Rain = 0
KFR1 162234Z 00004KT 25/16 A2995 RMK A01 T02540163  RH  057%=      5-min Rain = 0
KFR1 162235Z 36004KT 25/17 A2995 RMK A01 T02540166  RH  058%=      5-min Rain = 0
KFR1 162236Z 00005KT 25/17 A2995 RMK A01 T02540167  RH  059%=      5-min Rain = 0
KFR1 162237Z 36005KT 25/16 A2995 RMK A01 T02530162  RH  057%=      5-min Rain = 0
KFR1 162238Z 01005KT 25/16 A2995 RMK A01 T02510163  RH  058%=      5-min Rain = 0
KFR1 162239Z 36004KT 25/16 A2995 RMK A01 T02510160  RH  057%=      5-min Rain = 0
KFR1 162240Z 02004KT 25/16 A2995 RMK A01 T02500160  RH  057%=      5-min Rain = 0
KFR1 162241Z 05003KT 25/16 A2995 RMK A01 T02500161  RH  058%=      5-min Rain = 0
KFR1 162242Z 06002KT 25/16 A2995 RMK A01 T02500160  RH  057%=      5-min Rain = 0
KFR1 162243Z 07003KT 25/16 A2995 RMK A01 T02500162  RH  058%=      5-min Rain = 0
KFR1 162244Z 06003KT 25/16 A2995 RMK A01 T02500162  RH  058%=      5-min Rain = 0
KFR1 162245Z 05003KT 25/16 A2995 RMK A01 T02510159  RH  057%=      5-min Rain = 0
KFR1 162246Z 08005KT 25/16 A2995 RMK A01 T02530157  RH  055%=      5-min Rain = 0
KFR1 162247Z 09006KT 25/15 A2995 RMK A01 T02540153  RH  053%=      5-min Rain = 0
KFR1 162248Z 07005KT 25/16 A2994 RMK A01 T02540155  RH  054%=      5-min Rain = 0
KFR1 162249Z 07006KT 26/16 A2994 RMK A01 T02550156  RH  055%=      5-min Rain = 0
KFR1 162250Z 07006KT 26/15 A2994 RMK A01 T02550154  RH  054%=      5-min Rain = 0
KFR1 162251Z 05004KT 25/15 A2994 RMK A01 T02540153  RH  054%=      5-min Rain = 0
KFR1 162252Z 10005KT 26/16 A2994 RMK A01 T02550156  RH  054%=      5-min Rain = 0
KFR1 162253Z 10005KT 26/15 A2994 RMK A01 T02560154  RH  053%=      5-min Rain = 0
KFR1 162254Z 11004KT 26/16 A2994 RMK A01 T02580158  RH  054%=      5-min Rain = 0
KFR1 162255Z 10006KT 26/16 A2994 RMK A01 T02590162  RH  055%=      5-min Rain = 0
KFR1 162256Z 10005KT 26/16 A2994 RMK A01 T02610162  RH  054%=      5-min Rain = 0
KFR1 162257Z 08006KT 26/16 A2994 RMK A01 T02620160  RH  054%=      5-min Rain = 0
KFR1 162258Z 06006KT 26/16 A2994 RMK A01 T02610155  RH  052%=      5-min Rain = 0
KFR1 162259Z 05008KT 26/16 A2994 RMK A01 T02600156  RH  053%=      5-min Rain = 0
KFR1 162300Z 06007KT 26/15 A2994 RMK A01 T02600153  RH  052%=      5-min Rain = 0
KFR1 162301Z 08007KT 26/16 A2994 RMK A01 T02590156  RH  053%=      5-min Rain = 0
KFR1 162302Z 09007KT 26/16 A2994 RMK A01 T02590160  RH  055%=      5-min Rain = 0
KFR1 162303Z 09007KT 26/16 A2994 RMK A01 T02600158  RH  053%=      5-min Rain = 0
KFR1 162304Z 10007KT 26/16 A2994 RMK A01 T02610160  RH  054%=      5-min Rain = 0
KFR1 162305Z 08006KT 26/16 A2994 RMK A01 T02620158  RH  053%=      5-min Rain = 0
KFR1 162306Z 07007KT 26/15 A2994 RMK A01 T02620150  RH  050%=      5-min Rain = 0
KFR1 162307Z 07009KT 26/15 A2994 RMK A01 T02610147  RH  049%=      5-min Rain = 0
KFR1 162308Z 06009KT 26/15 A2994 RMK A01 T02600145  RH  049%=      5-min Rain = 0
KFR1 162309Z 05008KT 26/15 A2994 RMK A01 T02580146  RH  050%=      5-min Rain = 0
KFR1 162310Z 07009KT 26/15 A2994 RMK A01 T02570149  RH  051%=      5-min Rain = 0
KFR1 162311Z 07009KT 26/15 A2994 RMK A01 T02560146  RH  051%=      5-min Rain = 0
KFR1 162312Z 07008KT 26/15 A2994 RMK A01 T02550148  RH  051%=      5-min Rain = 0
KFR1 162313Z 06010KT 26/15 A2994 RMK A01 T02550150  RH  052%=      5-min Rain = 0
KFR1 162314Z 06009KT 26/15 A2994 RMK A01 T02550147  RH  051%=      5-min Rain = 0
KFR1 162315Z 08007KT 25/15 A2994 RMK A01 T02540149  RH  052%=      5-min Rain = 0
KFR1 162316Z 08004KT 26/16 A2994 RMK A01 T02550156  RH  054%=      5-min Rain = 0
KFR1 162317Z 07009KT 26/15 A2994 RMK A01 T02580154  RH  053%=      5-min Rain = 0
KFR1 162318Z 06008KT 26/15 A2994 RMK A01 T02580153  RH  052%=      5-min Rain = 0
KFR1 162319Z 07008KT 26/15 A2994 RMK A01 T02560151  RH  052%=      5-min Rain = 0
KFR1 162320Z 09007KT 26/15 A2994 RMK A01 T02550153  RH  053%=      5-min Rain = 0
KFR1 162321Z 08005KT 26/15 A2994 RMK A01 T02550153  RH  053%=      5-min Rain = 0
KFR1 162322Z 07006KT 26/16 A2994 RMK A01 T02560160  RH  056%=      5-min Rain = 0
KFR1 162323Z 04007KT 26/16 A2994 RMK A01 T02570159  RH  055%=      5-min Rain = 0
KFR1 162324Z 04006KT 26/16 A2994 RMK A01 T02580155  RH  053%=      5-min Rain = 0
KFR1 162325Z 05008KT 26/16 A2994 RMK A01 T02570155  RH  053%=      5-min Rain = 0
KFR1 162326Z 06008KT 26/15 A2994 RMK A01 T02570153  RH  053%=      5-min Rain = 0
KFR1 162327Z 07007KT 26/15 A2994 RMK A01 T02560154  RH  053%=      5-min Rain = 0
KFR1 162328Z 06006KT 26/15 A2994 RMK A01 T02560153  RH  053%=      5-min Rain = 0
KFR1 162329Z 08006KT 26/16 A2994 RMK A01 T02560156  RH  054%=      5-min Rain = 0
KFR1 162330Z 08008KT 26/16 A2994 RMK A01 T02560155  RH  054%=      5-min Rain = 0
KFR1 162331Z 08008KT 25/15 A2994 RMK A01 T02540152  RH  053%=      5-min Rain = 0
KFR1 162332Z 09007KT 25/15 A2994 RMK A01 T02530154  RH  054%=      5-min Rain = 0
KFR1 162333Z 08009KT 25/15 A2994 RMK A01 T02540154  RH  054%=      5-min Rain = 0
KFR1 162334Z 07007KT 25/15 A2994 RMK A01 T02540153  RH  053%=      5-min Rain = 0
KFR1 162335Z 07006KT 25/15 A2994 RMK A01 T02540151  RH  053%=      5-min Rain = 0
KFR1 162336Z 07005KT 25/15 A2994 RMK A01 T02540154  RH  054%=      5-min Rain = 0
KFR1 162337Z 07005KT 25/16 A2994 RMK A01 T02540155  RH  054%=      5-min Rain = 0
KFR1 162338Z 09006KT 25/16 A2994 RMK A01 T02540159  RH  056%=      5-min Rain = 0
KFR1 162339Z 08009KT 26/16 A2994 RMK A01 T02550158  RH  055%=      5-min Rain = 0
KFR1 162340Z 07008KT 26/16 A2994 RMK A01 T02550156  RH  054%=      5-min Rain = 0
KFR1 162341Z 07007KT 26/15 A2994 RMK A01 T02550153  RH  053%=      5-min Rain = 0
KFR1 162342Z 09007KT 25/16 A2994 RMK A01 T02530157  RH  055%=      5-min Rain = 0
KFR1 162343Z 09009KT 25/16 A2994 RMK A01 T02530160  RH  056%=      5-min Rain = 0
KFR1 162344Z 09009KT 25/16 A2994 RMK A01 T02540160  RH  056%=      5-min Rain = 0
KFR1 162345Z 09008KT 25/16 A2994 RMK A01 T02530157  RH  055%=      5-min Rain = 0
KFR1 162346Z 08008KT 25/16 A2994 RMK A01 T02530158  RH  056%=      5-min Rain = 0
KFR1 162347Z 06007KT 25/16 A2994 RMK A01 T02530155  RH  054%=      5-min Rain = 0
KFR1 162348Z 07008KT 25/15 A2994 RMK A01 T02510153  RH  054%=      5-min Rain = 0
KFR1 162349Z 08008KT 25/16 A2994 RMK A01 T02510156  RH  056%=      5-min Rain = 0
KFR1 162350Z 08006KT 25/16 A2995 RMK A01 T02510159  RH  057%=      5-min Rain = 0
KFR1 162351Z 05006KT 25/16 A2994 RMK A01 T02520156  RH  055%=      5-min Rain = 0
KFR1 162352Z 06007KT 25/16 A2994 RMK A01 T02520158  RH  056%=      5-min Rain = 0
KFR1 162353Z 08008KT 25/16 A2994 RMK A01 T02530161  RH  057%=      5-min Rain = 0
KFR1 162354Z 08009KT 25/16 A2994 RMK A01 T02540159  RH  056%=      5-min Rain = 0
KFR1 162355Z 08009KT 25/16 A2994 RMK A01 T02540159  RH  056%=      5-min Rain = 0
KFR1 162356Z 06009KT 25/16 A2994 RMK A01 T02530156  RH  055%=      5-min Rain = 0
KFR1 162357Z 06009KT 25/15 A2994 RMK A01 T02520154  RH  054%=      5-min Rain = 0
KFR1 162358Z 06008KT 25/15 A2994 RMK A01 T02510154  RH  055%=      5-min Rain = 0
KFR1 162359Z 07008KT 25/15 A2994 RMK A01 T02500154  RH  055%=      5-min Rain = 0
KFR1 170000Z 07007KT 25/16 A2994 RMK A01 T02500156  RH  056%=      5-min Rain = 0
KFR1 170001Z 06009KT 25/15 A2994 RMK A01 T02500154  RH  055%=      5-min Rain = 0
KFR1 170002Z 07009KT 25/15 A2994 RMK A01 T02500152  RH  054%=      5-min Rain = 0
KFR1 170003Z 08007KT 25/15 A2994 RMK A01 T02500154  RH  055%=      5-min Rain = 0
KFR1 170004Z 08007KT 25/16 A2994 RMK A01 T02500155  RH  056%=      5-min Rain = 0
KFR1 170005Z 08007KT 25/16 A2995 RMK A01 T02510157  RH  056%=      5-min Rain = 0
KFR1 170006Z 07006KT 25/16 A2995 RMK A01 T02510155  RH  055%=      5-min Rain = 0
KFR1 170007Z 07007KT 25/15 A2995 RMK A01 T02520150  RH  053%=      5-min Rain = 0
KFR1 170008Z 07006KT 25/15 A2994 RMK A01 T02510152  RH  054%=      5-min Rain = 0
KFR1 170009Z 07006KT 25/15 A2994 RMK A01 T02510153  RH  055%=      5-min Rain = 0
KFR1 170010Z 08008KT 25/15 A2995 RMK A01 T02510151  RH  054%=      5-min Rain = 0
KFR1 170011Z 08008KT 25/15 A2995 RMK A01 T02510151  RH  054%=      5-min Rain = 0
KFR1 170012Z 08008KT 25/15 A2995 RMK A01 T02510151  RH  054%=      5-min Rain = 0
KFR1 170013Z 06008KT 25/15 A2995 RMK A01 T02510150  RH  053%=      5-min Rain = 0
KFR1 170014Z 07008KT 25/15 A2995 RMK A01 T02510148  RH  053%=      5-min Rain = 0
KFR1 170015Z 07007KT 25/15 A2995 RMK A01 T02500150  RH  054%=      5-min Rain = 0
KFR1 170016Z 07006KT 25/15 A2995 RMK A01 T02500152  RH  054%=      5-min Rain = 0
KFR1 170017Z 07007KT 25/15 A2995 RMK A01 T02500153  RH  055%=      5-min Rain = 0
KFR1 170018Z 07007KT 25/15 A2995 RMK A01 T02500152  RH  054%=      5-min Rain = 0
KFR1 170019Z 07007KT 25/15 A2995 RMK A01 T02500151  RH  054%=      5-min Rain = 0
KFR1 170020Z 07007KT 25/15 A2995 RMK A01 T02500153  RH  055%=      5-min Rain = 0
KFR1 170021Z 07009KT 25/15 A2995 RMK A01 T02500151  RH  054%=      5-min Rain = 0
KFR1 170022Z 07010KT 25/15 A2995 RMK A01 T02490149  RH  054%=      5-min Rain = 0
KFR1 170023Z 07007KT 25/15 A2995 RMK A01 T02480149  RH  054%=      5-min Rain = 0
KFR1 170024Z 08008KT 25/15 A2995 RMK A01 T02480150  RH  055%=      5-min Rain = 0
KFR1 170025Z 08008KT 25/15 A2995 RMK A01 T02470149  RH  054%=      5-min Rain = 0
KFR1 170026Z 08007KT 25/15 A2995 RMK A01 T02470150  RH  055%=      5-min Rain = 0
KFR1 170027Z 07007KT 25/15 A2995 RMK A01 T02470148  RH  054%=      5-min Rain = 0
KFR1 170028Z 07008KT 25/15 A2995 RMK A01 T02470148  RH  054%=      5-min Rain = 0
KFR1 170029Z 07008KT 25/15 A2995 RMK A01 T02460147  RH  054%=      5-min Rain = 0
KFR1 170030Z 07008KT 25/15 A2995 RMK A01 T02460147  RH  054%=      5-min Rain = 0
KFR1 170031Z 07008KT 25/15 A2995 RMK A01 T02460147  RH  054%=      5-min Rain = 0
KFR1 170032Z 07006KT 25/15 A2995 RMK A01 T02460149  RH  055%=      5-min Rain = 0
KFR1 170033Z 08006KT 25/15 A2995 RMK A01 T02460151  RH  055%=      5-min Rain = 0
KFR1 170034Z 09007KT 25/15 A2995 RMK A01 T02460152  RH  056%=      5-min Rain = 0
KFR1 170035Z 09007KT 25/15 A2995 RMK A01 T02460150  RH  055%=      5-min Rain = 0
KFR1 170036Z 08007KT 25/15 A2995 RMK A01 T02460153  RH  056%=      5-min Rain = 0
KFR1 170037Z 08006KT 25/15 A2995 RMK A01 T02460152  RH  056%=      5-min Rain = 0
KFR1 170038Z 10006KT 25/15 A2995 RMK A01 T02450153  RH  056%=      5-min Rain = 0
KFR1 170039Z 09008KT 25/15 A2995 RMK A01 T02450154  RH  057%=      5-min Rain = 0
KFR1 170040Z 09007KT 25/15 A2995 RMK A01 T02450152  RH  056%=      5-min Rain = 0
KFR1 170041Z 09006KT 25/15 A2996 RMK A01 T02450154  RH  057%=      5-min Rain = 0
KFR1 170042Z 08007KT 24/15 A2996 RMK A01 T02440152  RH  056%=      5-min Rain = 0
KFR1 170043Z 09007KT 24/15 A2996 RMK A01 T02440153  RH  056%=      5-min Rain = 0
KFR1 170044Z 09007KT 24/15 A2996 RMK A01 T02440154  RH  057%=      5-min Rain = 0
KFR1 170045Z 09007KT 24/15 A2996 RMK A01 T02440152  RH  056%=      5-min Rain = 0
KFR1 170046Z 09007KT 24/15 A2996 RMK A01 T02430151  RH  056%=      5-min Rain = 0
KFR1 170047Z 09006KT 24/15 A2996 RMK A01 T02430151  RH  057%=      5-min Rain = 0
KFR1 170048Z 09006KT 24/15 A2996 RMK A01 T02420150  RH  056%=      5-min Rain = 0
KFR1 170049Z 08006KT 24/15 A2996 RMK A01 T02420150  RH  056%=      5-min Rain = 0
KFR1 170050Z 09006KT 24/15 A2996 RMK A01 T02420150  RH  056%=      5-min Rain = 0
KFR1 170051Z 09005KT 24/15 A2996 RMK A01 T02420151  RH  057%=      5-min Rain = 0
KFR1 170052Z 09004KT 24/15 A2996 RMK A01 T02420153  RH  057%=      5-min Rain = 0
KFR1 170053Z 09005KT 24/15 A2996 RMK A01 T02420153  RH  057%=      5-min Rain = 0
KFR1 170054Z 10006KT 24/15 A2996 RMK A01 T02420153  RH  057%=      5-min Rain = 0
KFR1 170055Z 10006KT 24/15 A2996 RMK A01 T02430151  RH  056%=      5-min Rain = 0
KFR1 170056Z 09005KT 24/15 A2996 RMK A01 T02430154  RH  058%=      5-min Rain = 0
KFR1 170057Z 09005KT 24/16 A2996 RMK A01 T02430156  RH  058%=      5-min Rain = 0
KFR1 170058Z 10007KT 24/15 A2996 RMK A01 T02420154  RH  058%=      5-min Rain = 0
KFR1 170059Z 10008KT 24/15 A2996 RMK A01 T02420153  RH  058%=      5-min Rain = 0
KFR1 170100Z 10008KT 24/15 A2996 RMK A01 T02420153  RH  057%=      5-min Rain = 0
KFR1 170101Z 09007KT 24/15 A2996 RMK A01 T02420153  RH  058%=      5-min Rain = 0
KFR1 170102Z 10007KT 24/15 A2996 RMK A01 T02410153  RH  058%=      5-min Rain = 0
KFR1 170103Z 10007KT 24/15 A2996 RMK A01 T02400151  RH  058%=      5-min Rain = 0
KFR1 170104Z 10007KT 24/15 A2996 RMK A01 T02390151  RH  058%=      5-min Rain = 0
KFR1 170105Z 10007KT 24/15 A2996 RMK A01 T02390152  RH  058%=      5-min Rain = 0
KFR1 170106Z 09006KT 24/15 A2996 RMK A01 T02390152  RH  058%=      5-min Rain = 0
KFR1 170107Z 10005KT 24/15 A2996 RMK A01 T02380153  RH  059%=      5-min Rain = 0
KFR1 170108Z 10006KT 24/15 A2996 RMK A01 T02370154  RH  059%=      5-min Rain = 0
KFR1 170109Z 10006KT 24/15 A2996 RMK A01 T02360152  RH  059%=      5-min Rain = 0
KFR1 170110Z 11007KT 24/15 A2996 RMK A01 T02360153  RH  059%=      5-min Rain = 0
KFR1 170111Z 10006KT 24/15 A2996 RMK A01 T02360153  RH  059%=      5-min Rain = 0
KFR1 170112Z 10005KT 24/15 A2996 RMK A01 T02360154  RH  060%=      5-min Rain = 0
KFR1 170113Z 10006KT 24/15 A2996 RMK A01 T02360154  RH  060%=      5-min Rain = 0
KFR1 170114Z 10006KT 24/15 A2996 RMK A01 T02360153  RH  060%=      5-min Rain = 0
KFR1 170115Z 09005KT 24/15 A2996 RMK A01 T02360153  RH  059%=      5-min Rain = 0
KFR1 170116Z 10006KT 24/15 A2996 RMK A01 T02370154  RH  060%=      5-min Rain = 0
KFR1 170117Z 10005KT 24/15 A2996 RMK A01 T02370154  RH  060%=      5-min Rain = 0
KFR1 170118Z 10005KT 24/16 A2996 RMK A01 T02370155  RH  060%=      5-min Rain = 0
KFR1 170119Z 10005KT 24/16 A2996 RMK A01 T02370156  RH  060%=      5-min Rain = 0
KFR1 170120Z 10006KT 24/16 A2996 RMK A01 T02370156  RH  061%=      5-min Rain = 0
KFR1 170121Z 10006KT 24/16 A2996 RMK A01 T02360155  RH  060%=      5-min Rain = 0
KFR1 170122Z 10006KT 24/15 A2996 RMK A01 T02360154  RH  060%=      5-min Rain = 0
KFR1 170123Z 10004KT 24/16 A2996 RMK A01 T02370155  RH  060%=      5-min Rain = 0
KFR1 170124Z 10004KT 24/16 A2996 RMK A01 T02360157  RH  061%=      5-min Rain = 0
KFR1 170125Z 10005KT 24/16 A2996 RMK A01 T02350156  RH  061%=      5-min Rain = 0
KFR1 170126Z 10005KT 24/16 A2996 RMK A01 T02360156  RH  061%=      5-min Rain = 0
KFR1 170127Z 09005KT 24/16 A2996 RMK A01 T02350156  RH  061%=      5-min Rain = 0
KFR1 170128Z 09004KT 24/16 A2996 RMK A01 T02350157  RH  062%=      5-min Rain = 0
KFR1 170129Z 08004KT 23/16 A2996 RMK A01 T02340158  RH  062%=      5-min Rain = 0
KFR1 170130Z 09003KT 23/16 A2996 RMK A01 T02340158  RH  062%=      5-min Rain = 0
KFR1 170131Z 09003KT 23/16 A2996 RMK A01 T02330159  RH  063%=      5-min Rain = 0
KFR1 170132Z 10004KT 23/16 A2996 RMK A01 T02320159  RH  063%=      5-min Rain = 0
KFR1 170133Z 11004KT 23/16 A2996 RMK A01 T02320158  RH  063%=      5-min Rain = 0
KFR1 170134Z 10005KT 23/16 A2996 RMK A01 T02320157  RH  063%=      5-min Rain = 0
KFR1 170135Z 10005KT 23/16 A2996 RMK A01 T02320156  RH  062%=      5-min Rain = 0
KFR1 170136Z 11005KT 23/16 A2997 RMK A01 T02320155  RH  062%=      5-min Rain = 0
KFR1 170137Z 10006KT 23/16 A2997 RMK A01 T02320155  RH  062%=      5-min Rain = 0
KFR1 170138Z 11006KT 23/15 A2997 RMK A01 T02310153  RH  061%=      5-min Rain = 0
KFR1 170139Z 10005KT 23/15 A2997 RMK A01 T02310154  RH  062%=      5-min Rain = 0
KFR1 170140Z 10005KT 23/15 A2997 RMK A01 T02290154  RH  062%=      5-min Rain = 0
KFR1 170141Z 10005KT 23/15 A2997 RMK A01 T02280154  RH  063%=      5-min Rain = 0
KFR1 170142Z 10005KT 23/15 A2997 RMK A01 T02280154  RH  063%=      5-min Rain = 0
KFR1 170143Z 10006KT 23/15 A2997 RMK A01 T02280153  RH  063%=      5-min Rain = 0
KFR1 170144Z 10005KT 23/15 A2997 RMK A01 T02280153  RH  063%=      5-min Rain = 0
KFR1 170145Z 10005KT 23/15 A2997 RMK A01 T02270153  RH  063%=      5-min Rain = 0
KFR1 170146Z 10005KT 23/15 A2997 RMK A01 T02250153  RH  064%=      5-min Rain = 0
KFR1 170147Z 10006KT 22/15 A2997 RMK A01 T02240154  RH  064%=      5-min Rain = 0
KFR1 170148Z 10005KT 22/15 A2997 RMK A01 T02240154  RH  064%=      5-min Rain = 0
KFR1 170149Z 11006KT 22/15 A2997 RMK A01 T02230154  RH  065%=      5-min Rain = 0
KFR1 170150Z 11006KT 22/16 A2997 RMK A01 T02230155  RH  065%=      5-min Rain = 0
KFR1 170151Z 11006KT 22/16 A2997 RMK A01 T02220155  RH  066%=      5-min Rain = 0
KFR1 170152Z 11006KT 22/16 A2997 RMK A01 T02210155  RH  066%=      5-min Rain = 0
KFR1 170153Z 11006KT 22/15 A2997 RMK A01 T02200154  RH  066%=      5-min Rain = 0
KFR1 170154Z 11007KT 22/15 A2997 RMK A01 T02190154  RH  066%=      5-min Rain = 0
KFR1 170155Z 11007KT 22/15 A2997 RMK A01 T02200153  RH  066%=      5-min Rain = 0
KFR1 170156Z 11006KT 22/15 A2997 RMK A01 T02200153  RH  066%=      5-min Rain = 0
KFR1 170157Z 10006KT 22/15 A2997 RMK A01 T02190153  RH  066%=      5-min Rain = 0
KFR1 170158Z 10006KT 22/15 A2997 RMK A01 T02190153  RH  066%=      5-min Rain = 0
KFR1 170159Z 10006KT 22/15 A2996 RMK A01 T02180153  RH  067%=      5-min Rain = 0
KFR1 170200Z 10007KT 22/15 A2996 RMK A01 T02170153  RH  067%=      5-min Rain = 0
KFR1 170201Z 10007KT 22/15 A2996 RMK A01 T02170153  RH  067%=      5-min Rain = 0
KFR1 170202Z 10006KT 22/15 A2996 RMK A01 T02170152  RH  067%=      5-min Rain = 0
KFR1 170203Z 10007KT 22/15 A2996 RMK A01 T02170152  RH  066%=      5-min Rain = 0
KFR1 170204Z 10007KT 22/15 A2996 RMK A01 T02170152  RH  066%=      5-min Rain = 0
KFR1 170205Z 10007KT 22/15 A2996 RMK A01 T02170151  RH  066%=      5-min Rain = 0
KFR1 170206Z 10006KT 22/15 A2996 RMK A01 T02180151  RH  066%=      5-min Rain = 0
KFR1 170207Z 11007KT 22/15 A2996 RMK A01 T02180151  RH  066%=      5-min Rain = 0
KFR1 170208Z 10008KT 22/15 A2996 RMK A01 T02180150  RH  065%=      5-min Rain = 0
KFR1 170209Z 11007KT 22/15 A2997 RMK A01 T02180149  RH  065%=      5-min Rain = 0
KFR1 170210Z 11007KT 22/15 A2997 RMK A01 T02190149  RH  064%=      5-min Rain = 0
KFR1 170211Z 11007KT 22/15 A2997 RMK A01 T02190149  RH  065%=      5-min Rain = 0
KFR1 170212Z 11007KT 22/15 A2997 RMK A01 T02170149  RH  065%=      5-min Rain = 0
KFR1 170213Z 11007KT 22/15 A2997 RMK A01 T02170148  RH  065%=      5-min Rain = 0
KFR1 170214Z 10007KT 22/15 A2997 RMK A01 T02170148  RH  065%=      5-min Rain = 0
KFR1 170215Z 10007KT 22/15 A2997 RMK A01 T02160147  RH  065%=      5-min Rain = 0
KFR1 170216Z 11007KT 22/15 A2997 RMK A01 T02160147  RH  065%=      5-min Rain = 0
KFR1 170217Z 11008KT 22/15 A2997 RMK A01 T02160146  RH  064%=      5-min Rain = 0
KFR1 170218Z 11007KT 22/15 A2997 RMK A01 T02160146  RH  064%=      5-min Rain = 0
KFR1 170219Z 11007KT 22/15 A2997 RMK A01 T02160146  RH  064%=      5-min Rain = 0
KFR1 170220Z 11007KT 22/15 A2997 RMK A01 T02160145  RH  064%=      5-min Rain = 0
KFR1 170221Z 11008KT 22/14 A2997 RMK A01 T02160144  RH  064%=      5-min Rain = 0
KFR1 170222Z 11007KT 22/14 A2997 RMK A01 T02160143  RH  063%=      5-min Rain = 0
KFR1 170223Z 11007KT 22/14 A2997 RMK A01 T02170144  RH  063%=      5-min Rain = 0
KFR1 170224Z 11007KT 22/14 A2997 RMK A01 T02160144  RH  063%=      5-min Rain = 0
KFR1 170225Z 11006KT 22/14 A2997 RMK A01 T02150144  RH  064%=      5-min Rain = 0
KFR1 170226Z 11007KT 21/14 A2997 RMK A01 T02140144  RH  064%=      5-min Rain = 0
KFR1 170227Z 10007KT 21/14 A2997 RMK A01 T02130143  RH  064%=      5-min Rain = 0
KFR1 170228Z 11008KT 21/14 A2997 RMK A01 T02130142  RH  064%=      5-min Rain = 0
KFR1 170229Z 10007KT 21/14 A2997 RMK A01 T02130142  RH  064%=      5-min Rain = 0
KFR1 170230Z 11007KT 21/14 A2997 RMK A01 T02130142  RH  064%=      5-min Rain = 0
KFR1 170231Z 10007KT 21/14 A2998 RMK A01 T02130142  RH  064%=      5-min Rain = 0
KFR1 170232Z 10008KT 21/14 A2998 RMK A01 T02120141  RH  064%=      5-min Rain = 0
KFR1 170233Z 11008KT 21/14 A2998 RMK A01 T02120141  RH  064%=      5-min Rain = 0
KFR1 170234Z 11008KT 21/14 A2998 RMK A01 T02120140  RH  064%=      5-min Rain = 0
KFR1 170235Z 11008KT 21/14 A2998 RMK A01 T02120141  RH  064%=      5-min Rain = 0
KFR1 170236Z 11008KT 21/14 A2998 RMK A01 T02120140  RH  064%=      5-min Rain = 0
KFR1 170237Z 11008KT 21/14 A2998 RMK A01 T02120140  RH  063%=      5-min Rain = 0
KFR1 170238Z 11009KT 21/14 A2998 RMK A01 T02120139  RH  063%=      5-min Rain = 0
KFR1 170239Z 11008KT 21/14 A2998 RMK A01 T02130140  RH  063%=      5-min Rain = 0
KFR1 170240Z 11008KT 21/14 A2998 RMK A01 T02130140  RH  063%=      5-min Rain = 0
KFR1 170241Z 11009KT 21/14 A2998 RMK A01 T02120140  RH  063%=      5-min Rain = 0
KFR1 170242Z 11009KT 21/14 A2998 RMK A01 T02120139  RH  063%=      5-min Rain = 0
KFR1 170243Z 10009KT 21/14 A2998 RMK A01 T02110139  RH  063%=      5-min Rain = 0
KFR1 170244Z 11008KT 21/14 A2998 RMK A01 T02110139  RH  063%=      5-min Rain = 0
KFR1 170245Z 11009KT 21/14 A2998 RMK A01 T02100138  RH  063%=      5-min Rain = 0
KFR1 170246Z 11008KT 21/14 A2997 RMK A01 T02100138  RH  063%=      5-min Rain = 0
KFR1 170247Z 11008KT 21/14 A2997 RMK A01 T02100139  RH  064%=      5-min Rain = 0
KFR1 170248Z 11008KT 21/14 A2997 RMK A01 T02080138  RH  064%=      5-min Rain = 0
KFR1 170249Z 11008KT 21/14 A2997 RMK A01 T02080138  RH  064%=      5-min Rain = 0
KFR1 170250Z 11008KT 21/14 A2997 RMK A01 T02080138  RH  064%=      5-min Rain = 0
KFR1 170251Z 10008KT 21/14 A2998 RMK A01 T02070137  RH  064%=      5-min Rain = 0
KFR1 170252Z 11009KT 21/14 A2998 RMK A01 T02070137  RH  064%=      5-min Rain = 0
KFR1 170253Z 11009KT 21/14 A2998 RMK A01 T02070137  RH  064%=      5-min Rain = 0
KFR1 170254Z 11008KT 21/14 A2998 RMK A01 T02070136  RH  064%=      5-min Rain = 0
KFR1 170255Z 11008KT 21/14 A2998 RMK A01 T02070136  RH  064%=      5-min Rain = 0
KFR1 170256Z 11009KT 21/14 A2998 RMK A01 T02070136  RH  064%=      5-min Rain = 0
KFR1 170257Z 11008KT 21/14 A2998 RMK A01 T02060136  RH  064%=      5-min Rain = 0
KFR1 170258Z 11008KT 21/14 A2998 RMK A01 T02070136  RH  064%=      5-min Rain = 0
KFR1 170259Z 11007KT 21/14 A2998 RMK A01 T02060136  RH  064%=      5-min Rain = 0
KFR1 170300Z 11007KT 21/14 A2998 RMK A01 T02050136  RH  065%=      5-min Rain = 0
KFR1 170301Z 11008KT 21/14 A2998 RMK A01 T02050136  RH  065%=      5-min Rain = 0
KFR1 170302Z 11007KT 21/14 A2999 RMK A01 T02050136  RH  064%=      5-min Rain = 0
KFR1 170303Z 11007KT 21/14 A2999 RMK A01 T02060136  RH  064%=      5-min Rain = 0
KFR1 170304Z 12007KT 21/14 A2999 RMK A01 T02060135  RH  064%=      5-min Rain = 0
KFR1 170305Z 12008KT 21/14 A2999 RMK A01 T02060135  RH  064%=      5-min Rain = 0
KFR1 170306Z 12007KT 21/14 A2999 RMK A01 T02060135  RH  064%=      5-min Rain = 0
KFR1 170307Z 12007KT 21/14 A2999 RMK A01 T02060135  RH  064%=      5-min Rain = 0
KFR1 170308Z 11008KT 21/13 A2999 RMK A01 T02060134  RH  064%=      5-min Rain = 0
KFR1 170309Z 11008KT 21/13 A2999 RMK A01 T02060134  RH  064%=      5-min Rain = 0
KFR1 170310Z 11008KT 21/14 A2999 RMK A01 T02050135  RH  064%=      5-min Rain = 0
KFR1 170311Z 11007KT 20/14 A2999 RMK A01 T02030135  RH  065%=      5-min Rain = 0
KFR1 170312Z 11008KT 20/14 A2999 RMK A01 T02030135  RH  065%=      5-min Rain = 0
KFR1 170313Z 11008KT 20/13 A2999 RMK A01 T02020134  RH  065%=      5-min Rain = 0
KFR1 170314Z 11009KT 20/13 A2999 RMK A01 T02030134  RH  065%=      5-min Rain = 0
KFR1 170315Z 11008KT 20/13 A2999 RMK A01 T02030134  RH  065%=      5-min Rain = 0
KFR1 170316Z 11008KT 20/14 A2999 RMK A01 T02040135  RH  065%=      5-min Rain = 0
KFR1 170317Z 11008KT 20/14 A2999 RMK A01 T02030135  RH  065%=      5-min Rain = 0
KFR1 170318Z 12007KT 20/14 A2999 RMK A01 T02030135  RH  065%=      5-min Rain = 0
KFR1 170319Z 11007KT 20/14 A2999 RMK A01 T02020135  RH  066%=      5-min Rain = 0
KFR1 170320Z 12007KT 20/14 A2999 RMK A01 T02010135  RH  066%=      5-min Rain = 0
KFR1 170321Z 11007KT 20/14 A30 RMK A01 T02000135  RH  066%=      5-min Rain = 0
KFR1 170322Z 11007KT 20/14 A30 RMK A01 T02000136  RH  066%=      5-min Rain = 0
KFR1 170323Z 11008KT 20/14 A30 RMK A01 T01990136  RH  067%=      5-min Rain = 0
KFR1 170324Z 11008KT 20/14 A30 RMK A01 T01990136  RH  067%=      5-min Rain = 0
KFR1 170325Z 11008KT 20/14 A30 RMK A01 T01990137  RH  067%=      5-min Rain = 0
KFR1 170326Z 11008KT 20/14 A30 RMK A01 T01990137  RH  067%=      5-min Rain = 0
KFR1 170327Z 11008KT 20/14 A30 RMK A01 T01990137  RH  067%=      5-min Rain = 0
KFR1 170328Z 11008KT 20/14 A30 RMK A01 T01990137  RH  067%=      5-min Rain = 0
KFR1 170329Z 12008KT 20/14 A30 RMK A01 T01990137  RH  068%=      5-min Rain = 0
KFR1 170330Z 12008KT 20/14 A30 RMK A01 T01990137  RH  067%=      5-min Rain = 0
KFR1 170331Z 12009KT 20/14 A30 RMK A01 T01990137  RH  068%=      5-min Rain = 0
KFR1 170332Z 12009KT 20/14 A30 RMK A01 T01990137  RH  068%=      5-min Rain = 0
KFR1 170333Z 11009KT 20/14 A30 RMK A01 T01990137  RH  068%=      5-min Rain = 0
KFR1 170334Z 12008KT 20/14 A30 RMK A01 T01990137  RH  068%=      5-min Rain = 0
KFR1 170335Z 12009KT 20/14 A30 RMK A01 T01990138  RH  068%=      5-min Rain = 0
KFR1 170336Z 11009KT 20/14 A30 RMK A01 T01990138  RH  068%=      5-min Rain = 0
KFR1 170337Z 11009KT 20/14 A30 RMK A01 T01990138  RH  068%=      5-min Rain = 0
KFR1 170338Z 11009KT 20/14 A30 RMK A01 T01990138  RH  068%=      5-min Rain = 0
KFR1 170339Z 11009KT 20/14 A30 RMK A01 T01990137  RH  067%=      5-min Rain = 0
KFR1 170340Z 11009KT 20/14 A30 RMK A01 T01990138  RH  067%=      5-min Rain = 0
KFR1 170341Z 12009KT 20/14 A30 RMK A01 T02000138  RH  068%=      5-min Rain = 0
KFR1 170342Z 12010KT 20/14 A30 RMK A01 T02000138  RH  068%=      5-min Rain = 0
KFR1 170343Z 12009KT 20/14 A30 RMK A01 T02000138  RH  068%=      5-min Rain = 0
KFR1 170344Z 11009KT 20/14 A30 RMK A01 T02010139  RH  068%=      5-min Rain = 0
KFR1 170345Z 12009KT 20/14 A30 RMK A01 T02010139  RH  068%=      5-min Rain = 0
KFR1 170346Z 12009KT 20/14 A30 RMK A01 T02010140  RH  068%=      5-min Rain = 0
KFR1 170347Z 12007KT 20/14 A30 RMK A01 T02000140  RH  068%=      5-min Rain = 0
KFR1 170348Z 12008KT 20/14 A30 RMK A01 T02000140  RH  068%=      5-min Rain = 0
KFR1 170349Z 12009KT 20/14 A30 RMK A01 T01990140  RH  069%=      5-min Rain = 0
KFR1 170350Z 12009KT 20/14 A30 RMK A01 T01990141  RH  069%=      5-min Rain = 0
KFR1 170351Z 12009KT 20/14 A30 RMK A01 T01990141  RH  069%=      5-min Rain = 0
KFR1 170352Z 12009KT 20/14 A3001 RMK A01 T01990141  RH  069%=      5-min Rain = 0
KFR1 170353Z 12008KT 20/14 A3001 RMK A01 T01990142  RH  070%=      5-min Rain = 0
KFR1 170354Z 12010KT 20/14 A3001 RMK A01 T01980142  RH  070%=      5-min Rain = 0
KFR1 170355Z 12010KT 20/14 A3001 RMK A01 T01980142  RH  070%=      5-min Rain = 0
KFR1 170356Z 12010KT 20/14 A3001 RMK A01 T01980142  RH  070%=      5-min Rain = 0
KFR1 170357Z 12009KT 20/14 A3001 RMK A01 T01980142  RH  070%=      5-min Rain = 0
KFR1 170358Z 12009KT 20/14 A3001 RMK A01 T01980143  RH  070%=      5-min Rain = 0
KFR1 170359Z 13009KT 20/14 A3001 RMK A01 T01980143  RH  071%=      5-min Rain = 0
KFR1 170400Z 13009KT 20/14 A3001 RMK A01 T01980144  RH  071%=      5-min Rain = 0
KFR1 170401Z 13009KT 20/14 A3001 RMK A01 T01980144  RH  071%=      5-min Rain = 0
KFR1 170402Z 13009KT 20/14 A3001 RMK A01 T01990144  RH  071%=      5-min Rain = 0
KFR1 170403Z 13009KT 20/14 A3001 RMK A01 T01980144  RH  071%=      5-min Rain = 0
KFR1 170404Z 13010KT 20/14 A3001 RMK A01 T01980144  RH  071%=      5-min Rain = 0
KFR1 170405Z 13010KT 20/15 A3001 RMK A01 T01990145  RH  071%=      5-min Rain = 0
KFR1 170406Z 13010KT 20/15 A3001 RMK A01 T01990145  RH  071%=      5-min Rain = 0
KFR1 170407Z 13009KT 20/15 A3001 RMK A01 T02000145  RH  071%=      5-min Rain = 0
KFR1 170408Z 13010KT 20/15 A3001 RMK A01 T02000146  RH  071%=      5-min Rain = 0
KFR1 170409Z 13010KT 20/15 A3001 RMK A01 T02000146  RH  071%=      5-min Rain = 0
KFR1 170410Z 14009KT 20/15 A3001 RMK A01 T02000146  RH  071%=      5-min Rain = 0
KFR1 170411Z 14009KT 20/15 A3001 RMK A01 T02000146  RH  071%=      5-min Rain = 0
KFR1 170412Z 14008KT 20/15 A3001 RMK A01 T01990146  RH  071%=      5-min Rain = 0
KFR1 170413Z 14010KT 20/15 A3001 RMK A01 T01980146  RH  072%=      5-min Rain = 0
KFR1 170414Z 14009KT 20/15 A3001 RMK A01 T01970146  RH  072%=      5-min Rain = 0
KFR1 170415Z 14010KT 20/15 A3001 RMK A01 T01960146  RH  073%=      5-min Rain = 0
KFR1 170416Z 14009KT 20/15 A3001 RMK A01 T01960146  RH  073%=      5-min Rain = 0
KFR1 170417Z 14009KT 20/15 A3001 RMK A01 T01960146  RH  073%=      5-min Rain = 0
KFR1 170418Z 14009KT 20/15 A3001 RMK A01 T01960146  RH  073%=      5-min Rain = 0
KFR1 170419Z 14009KT 20/15 A3001 RMK A01 T01950146  RH  073%=      5-min Rain = 0
KFR1 170420Z 14009KT 19/15 A3002 RMK A01 T01940146  RH  074%=      5-min Rain = 0
KFR1 170421Z 14009KT 19/15 A3002 RMK A01 T01940146  RH  074%=      5-min Rain = 0
KFR1 170422Z 15008KT 19/15 A3002 RMK A01 T01930146  RH  074%=      5-min Rain = 0
KFR1 170423Z 14007KT 19/15 A3002 RMK A01 T01920146  RH  074%=      5-min Rain = 0
KFR1 170424Z 15007KT 19/15 A3002 RMK A01 T01920146  RH  075%=      5-min Rain = 0
KFR1 170425Z 14008KT 19/15 A3002 RMK A01 T01910146  RH  075%=      5-min Rain = 0
KFR1 170426Z 15008KT 19/15 A3002 RMK A01 T01910146  RH  075%=      5-min Rain = 0
KFR1 170427Z 14009KT 19/15 A3002 RMK A01 T01910147  RH  075%=      5-min Rain = 0
KFR1 170428Z 14009KT 19/15 A3002 RMK A01 T01910147  RH  076%=      5-min Rain = 0
KFR1 170429Z 15007KT 19/15 A3002 RMK A01 T01910147  RH  076%=      5-min Rain = 0
KFR1 170430Z 15008KT 19/15 A3002 RMK A01 T01910147  RH  076%=      5-min Rain = 0
KFR1 170431Z 15008KT 19/15 A3002 RMK A01 T01900147  RH  076%=      5-min Rain = 0
KFR1 170432Z 15007KT 19/15 A3002 RMK A01 T01900147  RH  076%=      5-min Rain = 0
KFR1 170433Z 15007KT 19/15 A3002 RMK A01 T01890147  RH  076%=      5-min Rain = 0
KFR1 170434Z 15008KT 19/15 A3002 RMK A01 T01890146  RH  076%=      5-min Rain = 0
KFR1 170435Z 14008KT 19/15 A3002 RMK A01 T01890146  RH  076%=      5-min Rain = 0
KFR1 170436Z 14008KT 19/15 A3002 RMK A01 T01890146  RH  076%=      5-min Rain = 0
KFR1 170437Z 15008KT 19/15 A3002 RMK A01 T01890147  RH  076%=      5-min Rain = 0
KFR1 170438Z 15008KT 19/15 A3002 RMK A01 T01890146  RH  076%=      5-min Rain = 0
KFR1 170439Z 15008KT 19/15 A3002 RMK A01 T01890147  RH  076%=      5-min Rain = 0
KFR1 170440Z 15007KT 19/15 A3002 RMK A01 T01880146  RH  076%=      5-min Rain = 0
KFR1 170441Z 15006KT 19/15 A3002 RMK A01 T01880146  RH  077%=      5-min Rain = 0
KFR1 170442Z 15008KT 19/15 A3002 RMK A01 T01870146  RH  077%=      5-min Rain = 0
KFR1 170443Z 14007KT 19/15 A3002 RMK A01 T01860146  RH  077%=      5-min Rain = 0
KFR1 170444Z 15007KT 19/15 A3002 RMK A01 T01860146  RH  078%=      5-min Rain = 0
KFR1 170445Z 16008KT 19/15 A3002 RMK A01 T01850146  RH  078%=      5-min Rain = 0
KFR1 170446Z 15007KT 18/15 A3002 RMK A01 T01840146  RH  078%=      5-min Rain = 0
KFR1 170447Z 15008KT 18/15 A3002 RMK A01 T01830146  RH  079%=      5-min Rain = 0
KFR1 170448Z 15007KT 18/15 A3002 RMK A01 T01830146  RH  079%=      5-min Rain = 0
KFR1 170449Z 15008KT 18/15 A3002 RMK A01 T01830146  RH  079%=      5-min Rain = 0
KFR1 170450Z 15008KT 18/15 A3002 RMK A01 T01840146  RH  079%=      5-min Rain = 0
KFR1 170451Z 15007KT 18/15 A3002 RMK A01 T01840146  RH  079%=      5-min Rain = 0
KFR1 170452Z 15007KT 18/15 A3002 RMK A01 T01830146  RH  079%=      5-min Rain = 0
KFR1 170453Z 15007KT 18/15 A3002 RMK A01 T01830146  RH  079%=      5-min Rain = 0
KFR1 170454Z 15007KT 18/15 A3002 RMK A01 T01840146  RH  078%=      5-min Rain = 0
KFR1 170455Z 15006KT 18/15 A3002 RMK A01 T01840146  RH  078%=      5-min Rain = 0
KFR1 170456Z 15007KT 18/15 A3002 RMK A01 T01840145  RH  078%=      5-min Rain = 0
KFR1 170457Z 15007KT 19/15 A3002 RMK A01 T01850146  RH  078%=      5-min Rain = 0
KFR1 170458Z 15007KT 19/15 A3002 RMK A01 T01850146  RH  078%=      5-min Rain = 0
KFR1 170459Z 15006KT 19/15 A3002 RMK A01 T01860146  RH  078%=      5-min Rain = 0

Page generated in 0.08 seconds.